UAE247 VABB-YMML
Flight info
| Callsign | UAE247 |
|---|---|
| Flight time | N/A |
| Altitude | 33000 |
| Route | VEVAK2A MABTA R458 GUNIM R461 MDI M641 KAT N640 EKASU/N0484F350 N640 EGAVI/N0472F370 N640 ISLAV/N0460F390 N640 AD V255 BENDO Y12 ARBEY |
| Aircraft | A339/H-SADE1E2E3GHIJ3J5M1P2RWXY/LB2D1 |
Departure
| Time | 2026-05-08 00:01 |
|---|---|
| Airport | Chhatrapati Shivaji Maharaj International Airport (VABB) |
Arrival
| Time | N/A |
|---|---|
| Airport | Melbourne Airport (YMML) |
| Time | Latitude | Longitude | Altitude | Speed | Heading |
|---|---|---|---|---|---|
| 2026-05-07 23:36 | 19.09343 | 72.87263 | 55 ft | 0 kts | 306° |
| 2026-05-07 23:51 | 19.09337 | 72.87271 | 47 ft | 3 kts | 306° |
| 2026-05-07 23:52 | 19.09328 | 72.87285 | 47 ft | 1 kts | 306° |
| 2026-05-07 23:52 | 19.09323 | 72.87291 | 55 ft | 1 kts | 305° |
| 2026-05-07 23:52 | 19.09316 | 72.87302 | 47 ft | 2 kts | 304° |
| 2026-05-07 23:52 | 19.09306 | 72.87316 | 47 ft | 4 kts | 296° |
| 2026-05-07 23:53 | 19.09293 | 72.87342 | 47 ft | 2 kts | 284° |
| 2026-05-07 23:53 | 19.09289 | 72.87357 | 47 ft | 2 kts | 255° |
| 2026-05-07 23:53 | 19.09292 | 72.87371 | 47 ft | 1 kts | 221° |
| 2026-05-07 23:53 | 19.09297 | 72.87377 | 47 ft | 0 kts | 202° |
| 2026-05-07 23:54 | 19.09296 | 72.87377 | 47 ft | 1 kts | 202° |
| 2026-05-07 23:55 | 19.09284 | 72.87371 | 47 ft | 0 kts | 204° |
| 2026-05-07 23:55 | 19.09275 | 72.87367 | 47 ft | 5 kts | 205° |
| 2026-05-07 23:55 | 19.09234 | 72.87295 | 50 ft | 18 kts | 248° |
| 2026-05-07 23:55 | 19.09158 | 72.87263 | 49 ft | 19 kts | 182° |
| 2026-05-07 23:56 | 19.09101 | 72.87265 | 51 ft | 9 kts | 173° |
| 2026-05-07 23:56 | 19.09048 | 72.87355 | 51 ft | 20 kts | 90° |
| 2026-05-07 23:56 | 19.09055 | 72.87524 | 52 ft | 28 kts | 89° |
| 2026-05-07 23:56 | 19.09059 | 72.87736 | 54 ft | 29 kts | 89° |
| 2026-05-07 23:57 | 19.09060 | 72.87930 | 54 ft | 21 kts | 91° |
| 2026-05-07 23:57 | 19.09034 | 72.88037 | 50 ft | 0 kts | 141° |
| 2026-05-07 23:57 | 19.09018 | 72.88048 | 54 ft | 7 kts | 147° |
| 2026-05-07 23:57 | 19.08988 | 72.88051 | 49 ft | 1 kts | 175° |
| 2026-05-07 23:58 | 19.08988 | 72.88052 | 49 ft | 1 kts | 175° |
| 2026-05-07 23:58 | 19.08953 | 72.88051 | 47 ft | 10 kts | 185° |
| 2026-05-07 23:58 | 19.08892 | 72.87987 | 49 ft | 16 kts | 252° |
| 2026-05-07 23:59 | 19.08885 | 72.87855 | 54 ft | 15 kts | 268° |
| 2026-05-07 23:59 | 19.08885 | 72.87846 | 51 ft | 0 kts | 268° |
| 2026-05-07 23:59 | 19.08885 | 72.87843 | 51 ft | 0 kts | 268° |
| 2026-05-07 23:59 | 19.08882 | 72.87703 | 52 ft | 50 kts | 269° |
| 2026-05-08 00:00 | 19.08875 | 72.87087 | 52 ft | 115 kts | 269° |
| 2026-05-08 00:00 | 19.08864 | 72.86042 | 56 ft | 167 kts | 270° |
| 2026-05-08 00:00 | 19.08872 | 72.84708 | 238 ft | 193 kts | 271° |
| 2026-05-08 00:00 | 19.08864 | 72.83209 | 444 ft | 217 kts | 271° |
| 2026-05-08 00:01 | 19.08875 | 72.81561 | 919 ft | 225 kts | 272° |
| 2026-05-08 00:01 | 19.08900 | 72.79923 | 1670 ft | 224 kts | 271° |
| 2026-05-08 00:01 | 19.08873 | 72.78242 | 2071 ft | 236 kts | 269° |
| 2026-05-08 00:01 | 19.08800 | 72.76437 | 2244 ft | 254 kts | 268° |
| 2026-05-08 00:02 | 19.08725 | 72.74516 | 2469 ft | 265 kts | 268° |
| 2026-05-08 00:02 | 19.08283 | 72.72606 | 2795 ft | 271 kts | 243° |
| 2026-05-08 00:02 | 19.07082 | 72.71079 | 3190 ft | 274 kts | 217° |
| 2026-05-08 00:02 | 19.05344 | 72.70246 | 3569 ft | 277 kts | 190° |
| 2026-05-08 00:03 | 19.03444 | 72.70297 | 3940 ft | 280 kts | 164° |
| 2026-05-08 00:03 | 19.01708 | 72.71213 | 4310 ft | 280 kts | 141° |
| 2026-05-08 00:03 | 19.00212 | 72.72548 | 4676 ft | 283 kts | 137° |
| 2026-05-08 00:03 | 18.98579 | 72.73735 | 5053 ft | 287 kts | 152° |
| 2026-05-08 00:04 | 18.96696 | 72.74441 | 5474 ft | 288 kts | 167° |
| 2026-05-08 00:04 | 18.94704 | 72.74726 | 5888 ft | 290 kts | 176° |
| 2026-05-08 00:04 | 18.92680 | 72.74770 | 6275 ft | 293 kts | 181° |
| 2026-05-08 00:04 | 18.90646 | 72.74712 | 6714 ft | 292 kts | 182° |
| 2026-05-08 00:05 | 18.88613 | 72.74629 | 7134 ft | 293 kts | 182° |
| 2026-05-08 00:05 | 18.86571 | 72.74550 | 7565 ft | 294 kts | 181° |
| 2026-05-08 00:05 | 18.84521 | 72.74481 | 7780 ft | 295 kts | 181° |
| 2026-05-08 00:05 | 18.82469 | 72.74419 | 7832 ft | 295 kts | 181° |
| 2026-05-08 00:06 | 18.80415 | 72.74362 | 7821 ft | 295 kts | 180° |
| 2026-05-08 00:06 | 18.78367 | 72.74362 | 7840 ft | 294 kts | 174° |
| 2026-05-08 00:06 | 18.76370 | 72.74718 | 7826 ft | 296 kts | 163° |
| 2026-05-08 00:06 | 18.74418 | 72.75422 | 8209 ft | 295 kts | 159° |
| 2026-05-08 00:07 | 18.72483 | 72.76123 | 8737 ft | 293 kts | 160° |
| 2026-05-08 00:07 | 18.70544 | 72.76800 | 9185 ft | 294 kts | 160° |
| 2026-05-08 00:07 | 18.68594 | 72.77473 | 9665 ft | 295 kts | 160° |
| 2026-05-08 00:07 | 18.66643 | 72.78145 | 10013 ft | 299 kts | 160° |
| 2026-05-08 00:08 | 18.64615 | 72.78848 | 10121 ft | 313 kts | 160° |
| 2026-05-08 00:08 | 18.62503 | 72.79582 | 10241 ft | 325 kts | 160° |
| 2026-05-08 00:08 | 18.60311 | 72.80343 | 10356 ft | 338 kts | 160° |
| 2026-05-08 00:08 | 18.58812 | 72.80864 | 10468 ft | 344 kts | 160° |
| 2026-05-08 00:09 | 18.55787 | 72.81913 | 10991 ft | 346 kts | 160° |
| 2026-05-08 00:09 | 18.53490 | 72.82709 | 11378 ft | 348 kts | 160° |
| 2026-05-08 00:09 | 18.51946 | 72.83244 | 11645 ft | 349 kts | 160° |
| 2026-05-08 00:09 | 18.49640 | 72.84044 | 12051 ft | 351 kts | 160° |
| 2026-05-08 00:10 | 18.47317 | 72.84849 | 12444 ft | 352 kts | 160° |
| 2026-05-08 00:10 | 18.44980 | 72.85659 | 12871 ft | 354 kts | 161° |
| 2026-05-08 00:10 | 18.42639 | 72.86470 | 13274 ft | 355 kts | 161° |
| 2026-05-08 00:10 | 18.40278 | 72.87288 | 13686 ft | 356 kts | 161° |
| 2026-05-08 00:11 | 18.37914 | 72.88106 | 14012 ft | 359 kts | 161° |
| 2026-05-08 00:11 | 18.35537 | 72.88930 | 14350 ft | 361 kts | 161° |
| 2026-05-08 00:11 | 18.33172 | 72.89749 | 14683 ft | 363 kts | 161° |
| 2026-05-08 00:11 | 18.30769 | 72.90580 | 15025 ft | 365 kts | 161° |
| 2026-05-08 00:12 | 18.28352 | 72.91416 | 15356 ft | 367 kts | 161° |
| 2026-05-08 00:12 | 18.25921 | 72.92257 | 15682 ft | 369 kts | 161° |
| 2026-05-08 00:12 | 18.23471 | 72.93104 | 16006 ft | 371 kts | 162° |
| 2026-05-08 00:12 | 18.21004 | 72.93957 | 16335 ft | 373 kts | 162° |
| 2026-05-08 00:13 | 18.18546 | 72.94805 | 16634 ft | 376 kts | 162° |
| 2026-05-08 00:13 | 18.16039 | 72.95671 | 16936 ft | 378 kts | 162° |
| 2026-05-08 00:13 | 18.13529 | 72.96538 | 17247 ft | 380 kts | 162° |
| 2026-05-08 00:13 | 18.11013 | 72.97406 | 17574 ft | 381 kts | 162° |
| 2026-05-08 00:14 | 18.08514 | 72.98269 | 17883 ft | 384 kts | 162° |
| 2026-05-08 00:14 | 18.05953 | 72.99216 | 18177 ft | 386 kts | 160° |
| 2026-05-08 00:14 | 18.03473 | 73.00236 | 18418 ft | 389 kts | 159° |
| 2026-05-08 00:14 | 18.00950 | 73.01293 | 18633 ft | 392 kts | 159° |
| 2026-05-08 00:15 | 17.98393 | 73.02354 | 18859 ft | 396 kts | 159° |
| 2026-05-08 00:15 | 17.95816 | 73.03409 | 19097 ft | 398 kts | 159° |
| 2026-05-08 00:15 | 17.93215 | 73.04465 | 19307 ft | 402 kts | 159° |
| 2026-05-08 00:15 | 17.90596 | 73.05524 | 19539 ft | 405 kts | 159° |
| 2026-05-08 00:16 | 17.87953 | 73.06591 | 19771 ft | 408 kts | 159° |
| 2026-05-08 00:16 | 17.85294 | 73.07663 | 20032 ft | 410 kts | 159° |
| 2026-05-08 00:16 | 17.82626 | 73.08739 | 20272 ft | 412 kts | 159° |
| 2026-05-08 00:16 | 17.79940 | 73.09822 | 20507 ft | 414 kts | 159° |
| 2026-05-08 00:17 | 17.77268 | 73.10900 | 20739 ft | 417 kts | 159° |
| 2026-05-08 00:17 | 17.74552 | 73.11994 | 20986 ft | 419 kts | 159° |
| 2026-05-08 00:17 | 17.71820 | 73.13095 | 21195 ft | 422 kts | 159° |
| 2026-05-08 00:17 | 17.69071 | 73.14202 | 21422 ft | 425 kts | 159° |
| 2026-05-08 00:18 | 17.66298 | 73.15319 | 21652 ft | 427 kts | 159° |
| 2026-05-08 00:18 | 17.63513 | 73.16440 | 21875 ft | 430 kts | 159° |
| 2026-05-08 00:18 | 17.60712 | 73.17568 | 22111 ft | 432 kts | 159° |
| 2026-05-08 00:18 | 17.57890 | 73.18703 | 22340 ft | 434 kts | 159° |
| 2026-05-08 00:19 | 17.55058 | 73.19842 | 22527 ft | 438 kts | 159° |
| 2026-05-08 00:19 | 17.52244 | 73.20974 | 22782 ft | 440 kts | 159° |
| 2026-05-08 00:19 | 17.49381 | 73.22124 | 23019 ft | 443 kts | 158° |
| 2026-05-08 00:19 | 17.46491 | 73.23285 | 23255 ft | 445 kts | 158° |
| 2026-05-08 00:20 | 17.43595 | 73.24449 | 23445 ft | 447 kts | 158° |
| 2026-05-08 00:20 | 17.40684 | 73.25617 | 23690 ft | 448 kts | 158° |
| 2026-05-08 00:20 | 17.37773 | 73.26786 | 23919 ft | 448 kts | 159° |
| 2026-05-08 00:20 | 17.34858 | 73.27956 | 24147 ft | 449 kts | 159° |
| 2026-05-08 00:21 | 17.31935 | 73.29128 | 24371 ft | 450 kts | 159° |
| 2026-05-08 00:21 | 17.29007 | 73.30302 | 24615 ft | 450 kts | 159° |
| 2026-05-08 00:21 | 17.26073 | 73.31478 | 24834 ft | 452 kts | 159° |
| 2026-05-08 00:21 | 17.23129 | 73.32658 | 25078 ft | 452 kts | 159° |
| 2026-05-08 00:22 | 17.20187 | 73.33838 | 25317 ft | 453 kts | 159° |
| 2026-05-08 00:22 | 17.17290 | 73.35021 | 25559 ft | 453 kts | 156° |
| 2026-05-08 00:22 | 17.14489 | 73.36543 | 25763 ft | 454 kts | 147° |
| 2026-05-08 00:22 | 17.11918 | 73.38464 | 25990 ft | 454 kts | 139° |
| 2026-05-08 00:23 | 17.09594 | 73.40709 | 26226 ft | 454 kts | 135° |
| 2026-05-08 00:23 | 17.07314 | 73.42996 | 26432 ft | 456 kts | 136° |
| 2026-05-08 00:23 | 17.05007 | 73.45281 | 26666 ft | 456 kts | 136° |
| 2026-05-08 00:23 | 17.02697 | 73.47558 | 26894 ft | 458 kts | 136° |
| 2026-05-08 00:24 | 17.00376 | 73.49843 | 27097 ft | 459 kts | 136° |
| 2026-05-08 00:24 | 16.98051 | 73.52133 | 27335 ft | 460 kts | 136° |
| 2026-05-08 00:24 | 16.95719 | 73.54429 | 27564 ft | 460 kts | 136° |
| 2026-05-08 00:24 | 16.93386 | 73.56727 | 27777 ft | 461 kts | 136° |
| 2026-05-08 00:25 | 16.91079 | 73.58999 | 28013 ft | 462 kts | 136° |
| 2026-05-08 00:25 | 16.88707 | 73.61334 | 28229 ft | 463 kts | 136° |
| 2026-05-08 00:25 | 16.86361 | 73.63643 | 28451 ft | 464 kts | 136° |
| 2026-05-08 00:25 | 16.84038 | 73.65929 | 28675 ft | 465 kts | 136° |
| 2026-05-08 00:26 | 16.81678 | 73.68250 | 28869 ft | 467 kts | 136° |
| 2026-05-08 00:26 | 16.79306 | 73.70582 | 29071 ft | 468 kts | 137° |
| 2026-05-08 00:26 | 16.76931 | 73.72917 | 29255 ft | 470 kts | 137° |
| 2026-05-08 00:26 | 16.74543 | 73.75262 | 29468 ft | 471 kts | 137° |
| 2026-05-08 00:27 | 16.72152 | 73.77609 | 29679 ft | 472 kts | 137° |
| 2026-05-08 00:27 | 16.69744 | 73.79973 | 29905 ft | 473 kts | 137° |
| 2026-05-08 00:27 | 16.67371 | 73.82302 | 30100 ft | 474 kts | 137° |
| 2026-05-08 00:27 | 16.64961 | 73.84665 | 30278 ft | 476 kts | 137° |
| 2026-05-08 00:28 | 16.62538 | 73.87040 | 30459 ft | 478 kts | 137° |
| 2026-05-08 00:28 | 16.60113 | 73.89417 | 30643 ft | 479 kts | 137° |
| 2026-05-08 00:28 | 16.57681 | 73.91800 | 30862 ft | 479 kts | 137° |
| 2026-05-08 00:28 | 16.55246 | 73.94186 | 31057 ft | 481 kts | 137° |
| 2026-05-08 00:29 | 16.52805 | 73.96575 | 31233 ft | 482 kts | 137° |
| 2026-05-08 00:29 | 16.50357 | 73.98970 | 31444 ft | 483 kts | 137° |
| 2026-05-08 00:29 | 16.47895 | 74.01379 | 31618 ft | 484 kts | 137° |
| 2026-05-08 00:29 | 16.45464 | 74.03756 | 31794 ft | 486 kts | 137° |
| 2026-05-08 00:30 | 16.42998 | 74.06167 | 31984 ft | 486 kts | 137° |
| 2026-05-08 00:30 | 16.40531 | 74.08578 | 32156 ft | 487 kts | 137° |
| 2026-05-08 00:30 | 16.38049 | 74.11003 | 32319 ft | 488 kts | 137° |
| 2026-05-08 00:30 | 16.35573 | 74.13422 | 32475 ft | 489 kts | 137° |
| 2026-05-08 00:31 | 16.33087 | 74.15848 | 32605 ft | 489 kts | 137° |
| 2026-05-08 00:31 | 16.30599 | 74.18276 | 32738 ft | 490 kts | 137° |
| 2026-05-08 00:31 | 16.28111 | 74.20703 | 32840 ft | 491 kts | 137° |
| 2026-05-08 00:31 | 16.25616 | 74.23135 | 32890 ft | 492 kts | 137° |
| 2026-05-08 00:32 | 16.20589 | 74.28035 | 32890 ft | 495 kts | 137° |
| 2026-05-08 00:32 | 16.15594 | 74.32900 | 32896 ft | 494 kts | 137° |
| 2026-05-08 00:33 | 16.10575 | 74.37786 | 32897 ft | 494 kts | 137° |
| 2026-05-08 00:33 | 16.05560 | 74.42662 | 32894 ft | 492 kts | 137° |
| 2026-05-08 00:34 | 16.00549 | 74.47532 | 32892 ft | 492 kts | 138° |
| 2026-05-08 00:34 | 15.95580 | 74.52356 | 32897 ft | 491 kts | 137° |
| 2026-05-08 00:35 | 15.90588 | 74.57200 | 32892 ft | 491 kts | 137° |
| 2026-05-08 00:35 | 15.85390 | 74.61765 | 32883 ft | 489 kts | 146° |
| 2026-05-08 00:36 | 15.79464 | 74.65213 | 32879 ft | 488 kts | 154° |
| 2026-05-08 00:36 | 15.73388 | 74.68367 | 32878 ft | 488 kts | 154° |
| 2026-05-08 00:37 | 15.67367 | 74.71519 | 32875 ft | 488 kts | 154° |
| 2026-05-08 00:38 | 15.58258 | 74.76278 | 32876 ft | 488 kts | 154° |
| 2026-05-08 00:38 | 15.52189 | 74.79444 | 32881 ft | 488 kts | 154° |
| 2026-05-08 00:39 | 15.46113 | 74.82611 | 32898 ft | 488 kts | 154° |
| 2026-05-08 00:39 | 15.40041 | 74.85774 | 32909 ft | 489 kts | 154° |
| 2026-05-08 00:40 | 15.33964 | 74.88938 | 32919 ft | 488 kts | 154° |
| 2026-05-08 00:40 | 15.27885 | 74.92102 | 32925 ft | 488 kts | 154° |
| 2026-05-08 00:41 | 15.21854 | 74.95238 | 32921 ft | 488 kts | 154° |
| 2026-05-08 00:41 | 15.15772 | 74.98397 | 32910 ft | 488 kts | 154° |
| 2026-05-08 00:42 | 15.09706 | 75.01548 | 32902 ft | 488 kts | 154° |
| 2026-05-08 00:42 | 15.03639 | 75.04697 | 32888 ft | 488 kts | 154° |
| 2026-05-08 00:43 | 14.97559 | 75.07850 | 32885 ft | 488 kts | 154° |
| 2026-05-08 00:43 | 14.91486 | 75.10997 | 32888 ft | 488 kts | 154° |
| 2026-05-08 00:44 | 14.85446 | 75.14126 | 32885 ft | 488 kts | 153° |
| 2026-05-08 00:44 | 14.79359 | 75.17277 | 32886 ft | 489 kts | 154° |
| 2026-05-08 00:45 | 14.73267 | 75.20409 | 32890 ft | 489 kts | 154° |
| 2026-05-08 00:45 | 14.67159 | 75.23545 | 32894 ft | 490 kts | 154° |
| 2026-05-08 00:46 | 14.61050 | 75.26683 | 32898 ft | 490 kts | 154° |
| 2026-05-08 00:46 | 14.54981 | 75.29798 | 32901 ft | 490 kts | 154° |
| 2026-05-08 00:47 | 14.48871 | 75.32933 | 32904 ft | 490 kts | 154° |
| 2026-05-08 00:47 | 14.42757 | 75.36068 | 32906 ft | 490 kts | 154° |
| 2026-05-08 00:48 | 14.36652 | 75.39196 | 32911 ft | 490 kts | 154° |
| 2026-05-08 00:48 | 14.30525 | 75.42334 | 32916 ft | 490 kts | 154° |
| 2026-05-08 00:49 | 14.24451 | 75.45442 | 32918 ft | 490 kts | 154° |
| 2026-05-08 00:49 | 14.18347 | 75.48564 | 32920 ft | 489 kts | 154° |
| 2026-05-08 00:50 | 14.12248 | 75.51682 | 32919 ft | 489 kts | 154° |
| 2026-05-08 00:50 | 14.06140 | 75.54795 | 32918 ft | 489 kts | 154° |
| 2026-05-08 00:51 | 14.00054 | 75.57837 | 32918 ft | 489 kts | 154° |
| 2026-05-08 00:51 | 13.93924 | 75.60896 | 32919 ft | 489 kts | 154° |
| 2026-05-08 00:52 | 13.87803 | 75.63956 | 32923 ft | 489 kts | 154° |
| 2026-05-08 00:52 | 13.81713 | 75.67000 | 32927 ft | 489 kts | 154° |
| 2026-05-08 00:53 | 13.75583 | 75.70063 | 32926 ft | 489 kts | 154° |
| 2026-05-08 00:53 | 13.69489 | 75.73107 | 32930 ft | 488 kts | 154° |
| 2026-05-08 00:54 | 13.63378 | 75.76156 | 32932 ft | 488 kts | 155° |
| 2026-05-08 00:54 | 13.57266 | 75.79205 | 32936 ft | 488 kts | 155° |
| 2026-05-08 00:55 | 13.51158 | 75.82249 | 32943 ft | 488 kts | 155° |
| 2026-05-08 00:55 | 13.45058 | 75.85288 | 32947 ft | 487 kts | 155° |
| 2026-05-08 00:56 | 13.38952 | 75.88328 | 32946 ft | 487 kts | 155° |
| 2026-05-08 00:56 | 13.32857 | 75.91361 | 32946 ft | 486 kts | 155° |
| 2026-05-08 00:57 | 13.27797 | 75.93877 | 32946 ft | 486 kts | 155° |
| 2026-05-08 00:57 | 13.21714 | 75.96901 | 32940 ft | 485 kts | 155° |
| 2026-05-08 00:58 | 13.15665 | 75.99907 | 32946 ft | 485 kts | 155° |
| 2026-05-08 00:58 | 13.09589 | 76.02924 | 32946 ft | 485 kts | 155° |
| 2026-05-08 00:59 | 13.03516 | 76.05937 | 32948 ft | 484 kts | 155° |
| 2026-05-08 00:59 | 12.97447 | 76.08945 | 32947 ft | 484 kts | 155° |
| 2026-05-08 01:00 | 12.91385 | 76.11947 | 32948 ft | 484 kts | 155° |
| 2026-05-08 01:00 | 12.85325 | 76.14948 | 32944 ft | 483 kts | 155° |
| 2026-05-08 01:01 | 12.79304 | 76.17927 | 32947 ft | 483 kts | 155° |
| 2026-05-08 01:01 | 12.73244 | 76.20924 | 32945 ft | 483 kts | 155° |
| 2026-05-08 01:02 | 12.67188 | 76.23918 | 32944 ft | 483 kts | 155° |
| 2026-05-08 01:02 | 12.61136 | 76.26908 | 32945 ft | 483 kts | 155° |
| 2026-05-08 01:03 | 12.55082 | 76.29897 | 32943 ft | 483 kts | 155° |
| 2026-05-08 01:03 | 12.49026 | 76.32886 | 32937 ft | 483 kts | 155° |
| 2026-05-08 01:04 | 12.42981 | 76.35868 | 32939 ft | 483 kts | 155° |
| 2026-05-08 01:04 | 12.36930 | 76.38851 | 32933 ft | 483 kts | 155° |
| 2026-05-08 01:05 | 12.30905 | 76.41820 | 32934 ft | 482 kts | 155° |
| 2026-05-08 01:05 | 12.24850 | 76.44802 | 32933 ft | 482 kts | 155° |
| 2026-05-08 01:06 | 12.18790 | 76.47785 | 32931 ft | 482 kts | 155° |
| 2026-05-08 01:06 | 12.12751 | 76.50773 | 32935 ft | 483 kts | 154° |
| 2026-05-08 01:07 | 12.06740 | 76.53760 | 32937 ft | 483 kts | 154° |
| 2026-05-08 01:07 | 12.00693 | 76.56762 | 32939 ft | 483 kts | 154° |
| 2026-05-08 01:08 | 11.94644 | 76.59760 | 32942 ft | 483 kts | 154° |
| 2026-05-08 01:08 | 11.88590 | 76.62759 | 32944 ft | 483 kts | 154° |
| 2026-05-08 01:09 | 11.82535 | 76.65758 | 32953 ft | 483 kts | 154° |
| 2026-05-08 01:09 | 11.76513 | 76.68738 | 32960 ft | 483 kts | 154° |
| 2026-05-08 01:10 | 11.70460 | 76.71733 | 32961 ft | 484 kts | 154° |
| 2026-05-08 01:10 | 11.64405 | 76.74727 | 32967 ft | 484 kts | 154° |
| 2026-05-08 01:11 | 11.58346 | 76.77722 | 32975 ft | 483 kts | 154° |
| 2026-05-08 01:11 | 11.52297 | 76.80710 | 32973 ft | 482 kts | 154° |
| 2026-05-08 01:12 | 11.46255 | 76.83693 | 32972 ft | 481 kts | 154° |
| 2026-05-08 01:12 | 11.40231 | 76.86666 | 32970 ft | 481 kts | 154° |
| 2026-05-08 01:13 | 11.34195 | 76.89644 | 32967 ft | 483 kts | 154° |
| 2026-05-08 01:13 | 11.28133 | 76.92632 | 32957 ft | 484 kts | 154° |
| 2026-05-08 01:14 | 11.22092 | 76.95609 | 32949 ft | 485 kts | 154° |
| 2026-05-08 01:14 | 11.15996 | 76.98612 | 32942 ft | 485 kts | 154° |
| 2026-05-08 01:15 | 11.09908 | 77.01610 | 32942 ft | 486 kts | 154° |
| 2026-05-08 01:15 | 11.03927 | 77.04750 | 32943 ft | 487 kts | 148° |
| 2026-05-08 01:16 | 10.98575 | 77.08953 | 32943 ft | 487 kts | 139° |
| 2026-05-08 01:16 | 10.93433 | 77.13463 | 32942 ft | 488 kts | 140° |
| 2026-05-08 01:17 | 10.88282 | 77.17941 | 32945 ft | 487 kts | 140° |
| 2026-05-08 01:17 | 10.83119 | 77.22429 | 32943 ft | 487 kts | 140° |
| 2026-05-08 01:18 | 10.77995 | 77.26882 | 32940 ft | 487 kts | 140° |
| 2026-05-08 01:18 | 10.72841 | 77.31360 | 32936 ft | 487 kts | 140° |
| 2026-05-08 01:19 | 10.67690 | 77.35833 | 32940 ft | 486 kts | 140° |
| 2026-05-08 01:19 | 10.62540 | 77.40304 | 32943 ft | 486 kts | 140° |
| 2026-05-08 01:20 | 10.57396 | 77.44766 | 32943 ft | 486 kts | 140° |
| 2026-05-08 01:20 | 10.52287 | 77.49197 | 32945 ft | 486 kts | 140° |
| 2026-05-08 01:21 | 10.47145 | 77.53655 | 32946 ft | 486 kts | 140° |
| 2026-05-08 01:21 | 10.41992 | 77.58119 | 32942 ft | 487 kts | 140° |
| 2026-05-08 01:22 | 10.36837 | 77.62584 | 32940 ft | 488 kts | 140° |
| 2026-05-08 01:22 | 10.31665 | 77.67061 | 32937 ft | 488 kts | 140° |
| 2026-05-08 01:23 | 10.26493 | 77.71536 | 32933 ft | 489 kts | 140° |
| 2026-05-08 01:23 | 10.21306 | 77.76022 | 32925 ft | 488 kts | 140° |
| 2026-05-08 01:24 | 10.16137 | 77.80490 | 32917 ft | 488 kts | 139° |
| 2026-05-08 01:24 | 10.10971 | 77.84954 | 32910 ft | 487 kts | 139° |
| 2026-05-08 01:25 | 10.05856 | 77.89372 | 32893 ft | 485 kts | 139° |
| 2026-05-08 01:25 | 10.00698 | 77.93826 | 32880 ft | 486 kts | 139° |
| 2026-05-08 01:26 | 9.95539 | 77.98278 | 32866 ft | 486 kts | 139° |
| 2026-05-08 01:26 | 9.90430 | 78.02686 | 32860 ft | 485 kts | 139° |
| 2026-05-08 01:27 | 9.85182 | 78.07038 | 32858 ft | 484 kts | 145° |
| 2026-05-08 01:27 | 9.79300 | 78.10234 | 32855 ft | 483 kts | 158° |
| 2026-05-08 01:28 | 9.72901 | 78.12370 | 32852 ft | 483 kts | 161° |
| 2026-05-08 01:28 | 9.66505 | 78.14480 | 32853 ft | 482 kts | 161° |
| 2026-05-08 01:29 | 9.60132 | 78.16589 | 32855 ft | 482 kts | 161° |
| 2026-05-08 01:29 | 9.53763 | 78.18691 | 32854 ft | 481 kts | 161° |
| 2026-05-08 01:30 | 9.47390 | 78.20793 | 32852 ft | 481 kts | 161° |
| 2026-05-08 01:30 | 9.41047 | 78.22884 | 32843 ft | 481 kts | 161° |
| 2026-05-08 01:31 | 9.34694 | 78.24977 | 32843 ft | 481 kts | 161° |
| 2026-05-08 01:31 | 9.28326 | 78.27075 | 32844 ft | 481 kts | 161° |
| 2026-05-08 01:32 | 9.21960 | 78.29171 | 32839 ft | 481 kts | 161° |
| 2026-05-08 01:32 | 9.15639 | 78.31251 | 32839 ft | 481 kts | 161° |
| 2026-05-08 01:33 | 9.09257 | 78.33351 | 32834 ft | 481 kts | 161° |
| 2026-05-08 01:33 | 9.02883 | 78.35447 | 32837 ft | 482 kts | 161° |
| 2026-05-08 01:34 | 8.96507 | 78.37544 | 32831 ft | 482 kts | 161° |
| 2026-05-08 01:34 | 8.90153 | 78.39632 | 32833 ft | 482 kts | 161° |
| 2026-05-08 01:35 | 8.83766 | 78.41730 | 32835 ft | 483 kts | 161° |
| 2026-05-08 01:35 | 8.77366 | 78.43832 | 32831 ft | 483 kts | 161° |
| 2026-05-08 01:36 | 8.70956 | 78.45936 | 32833 ft | 484 kts | 161° |
| 2026-05-08 01:36 | 8.64542 | 78.48041 | 32837 ft | 484 kts | 161° |
| 2026-05-08 01:37 | 8.58120 | 78.50147 | 32836 ft | 485 kts | 161° |
| 2026-05-08 01:37 | 8.51699 | 78.52253 | 32838 ft | 485 kts | 161° |
| 2026-05-08 01:38 | 8.45274 | 78.54360 | 32830 ft | 486 kts | 161° |
| 2026-05-08 01:38 | 8.38837 | 78.56469 | 32833 ft | 486 kts | 161° |
| 2026-05-08 01:39 | 8.32449 | 78.58616 | 32830 ft | 485 kts | 156° |
| 2026-05-08 01:39 | 8.26712 | 78.62120 | 32834 ft | 483 kts | 138° |
| 2026-05-08 01:40 | 8.22110 | 78.67042 | 32837 ft | 482 kts | 131° |
| 2026-05-08 01:40 | 8.17638 | 78.72088 | 32839 ft | 482 kts | 131° |
| 2026-05-08 01:41 | 8.13173 | 78.77101 | 32835 ft | 483 kts | 131° |
| 2026-05-08 01:41 | 8.08681 | 78.82148 | 32842 ft | 483 kts | 131° |
| 2026-05-08 01:42 | 8.04181 | 78.87205 | 32840 ft | 483 kts | 131° |
| 2026-05-08 01:42 | 7.99687 | 78.92253 | 32839 ft | 484 kts | 131° |
| 2026-05-08 01:43 | 7.95941 | 78.96459 | 32840 ft | 484 kts | 131° |
| 2026-05-08 01:43 | 7.90708 | 79.02333 | 32841 ft | 484 kts | 131° |
| 2026-05-08 01:44 | 7.86938 | 79.06564 | 32834 ft | 484 kts | 131° |
| 2026-05-08 01:44 | 7.82468 | 79.11578 | 32841 ft | 483 kts | 131° |
| 2026-05-08 01:45 | 7.77963 | 79.16630 | 32837 ft | 483 kts | 131° |
| 2026-05-08 01:45 | 7.73484 | 79.21651 | 32838 ft | 483 kts | 131° |
| 2026-05-08 01:46 | 7.68998 | 79.26695 | 32833 ft | 483 kts | 131° |
| 2026-05-08 01:46 | 7.64550 | 79.31775 | 32828 ft | 482 kts | 131° |
| 2026-05-08 01:47 | 7.60103 | 79.36850 | 32830 ft | 482 kts | 131° |
| 2026-05-08 01:47 | 7.55657 | 79.41914 | 32828 ft | 482 kts | 131° |
| 2026-05-08 01:48 | 7.48984 | 79.49508 | 32828 ft | 482 kts | 131° |
| 2026-05-08 01:48 | 7.44565 | 79.54534 | 32822 ft | 482 kts | 131° |
| 2026-05-08 01:49 | 7.40119 | 79.59589 | 32817 ft | 482 kts | 131° |
| 2026-05-08 01:49 | 7.35672 | 79.64644 | 32822 ft | 482 kts | 131° |
| 2026-05-08 01:50 | 7.31219 | 79.69705 | 32826 ft | 482 kts | 131° |
| 2026-05-08 01:50 | 7.26772 | 79.74757 | 32831 ft | 482 kts | 131° |
| 2026-05-08 01:51 | 7.22344 | 79.79785 | 32834 ft | 482 kts | 131° |
| 2026-05-08 01:51 | 7.17893 | 79.84838 | 32836 ft | 482 kts | 131° |
| 2026-05-08 01:52 | 7.13451 | 79.89888 | 32833 ft | 481 kts | 131° |
| 2026-05-08 01:52 | 7.09022 | 79.94945 | 32837 ft | 481 kts | 131° |
| 2026-05-08 01:53 | 7.04616 | 79.99971 | 32842 ft | 481 kts | 131° |
| 2026-05-08 01:53 | 7.00185 | 80.05022 | 32829 ft | 481 kts | 131° |
| 2026-05-08 01:54 | 6.95755 | 80.10069 | 32831 ft | 480 kts | 131° |
| 2026-05-08 01:54 | 6.91334 | 80.15105 | 32833 ft | 480 kts | 131° |
| 2026-05-08 01:55 | 6.86911 | 80.20142 | 32837 ft | 480 kts | 131° |
| 2026-05-08 01:55 | 6.82489 | 80.25176 | 32842 ft | 479 kts | 131° |
| 2026-05-08 01:56 | 6.78074 | 80.30200 | 32856 ft | 479 kts | 131° |
| 2026-05-08 01:56 | 6.73665 | 80.35217 | 32859 ft | 478 kts | 131° |
| 2026-05-08 01:57 | 6.69281 | 80.40203 | 32859 ft | 478 kts | 130° |
| 2026-05-08 01:57 | 6.64876 | 80.45211 | 32857 ft | 478 kts | 130° |
| 2026-05-08 01:58 | 6.60467 | 80.50222 | 32858 ft | 478 kts | 130° |
| 2026-05-08 01:58 | 6.56056 | 80.55235 | 32855 ft | 478 kts | 130° |
| 2026-05-08 01:59 | 6.51648 | 80.60242 | 32853 ft | 478 kts | 130° |
| 2026-05-08 01:59 | 6.47265 | 80.65222 | 32849 ft | 478 kts | 130° |
| 2026-05-08 02:00 | 6.42927 | 80.70293 | 32845 ft | 478 kts | 130° |
| 2026-05-08 02:00 | 6.38598 | 80.75388 | 32849 ft | 479 kts | 130° |
| 2026-05-08 02:01 | 6.34266 | 80.80466 | 32848 ft | 479 kts | 130° |
| 2026-05-08 02:01 | 6.29920 | 80.85549 | 32839 ft | 479 kts | 130° |
| 2026-05-08 02:02 | 6.25567 | 80.90639 | 32837 ft | 479 kts | 130° |
| 2026-05-08 02:02 | 6.21218 | 80.95725 | 32838 ft | 480 kts | 130° |
| 2026-05-08 02:03 | 6.16893 | 81.00781 | 32830 ft | 480 kts | 130° |
| 2026-05-08 02:03 | 6.12528 | 81.05882 | 32837 ft | 480 kts | 130° |
| 2026-05-08 02:04 | 6.08181 | 81.10937 | 32832 ft | 480 kts | 130° |
| 2026-05-08 02:04 | 6.03798 | 81.16002 | 32843 ft | 480 kts | 130° |
| 2026-05-08 02:05 | 5.99419 | 81.21067 | 32836 ft | 479 kts | 130° |
| 2026-05-08 02:05 | 5.95042 | 81.26131 | 32847 ft | 479 kts | 130° |
| 2026-05-08 02:06 | 5.90694 | 81.31162 | 32838 ft | 479 kts | 130° |
| 2026-05-08 02:06 | 5.86327 | 81.36213 | 32842 ft | 479 kts | 130° |
| 2026-05-08 02:07 | 5.81961 | 81.41261 | 32846 ft | 478 kts | 130° |
| 2026-05-08 02:07 | 5.77598 | 81.46304 | 32839 ft | 478 kts | 130° |
| 2026-05-08 02:08 | 5.73232 | 81.51351 | 32843 ft | 478 kts | 130° |
| 2026-05-08 02:08 | 5.68868 | 81.56393 | 32836 ft | 478 kts | 130° |
| 2026-05-08 02:09 | 5.64524 | 81.61411 | 32835 ft | 478 kts | 130° |
| 2026-05-08 02:09 | 5.60162 | 81.66457 | 32839 ft | 478 kts | 130° |
| 2026-05-08 02:10 | 5.55816 | 81.71514 | 32838 ft | 478 kts | 130° |
| 2026-05-08 02:10 | 5.51497 | 81.76538 | 32835 ft | 478 kts | 130° |
| 2026-05-08 02:11 | 5.47142 | 81.81599 | 32829 ft | 478 kts | 130° |
| 2026-05-08 02:11 | 5.42786 | 81.86659 | 32834 ft | 479 kts | 130° |
| 2026-05-08 02:12 | 5.38424 | 81.91724 | 32835 ft | 479 kts | 130° |
| 2026-05-08 02:12 | 5.34092 | 81.96753 | 32836 ft | 479 kts | 130° |
| 2026-05-08 02:13 | 5.29723 | 82.01824 | 32834 ft | 479 kts | 130° |
| 2026-05-08 02:13 | 5.25360 | 82.06887 | 32830 ft | 480 kts | 130° |
| 2026-05-08 02:14 | 5.20992 | 82.11955 | 32833 ft | 480 kts | 130° |
| 2026-05-08 02:14 | 5.16641 | 82.17000 | 32837 ft | 480 kts | 130° |
| 2026-05-08 02:15 | 5.12264 | 82.22077 | 32837 ft | 481 kts | 130° |
| 2026-05-08 02:15 | 5.07885 | 82.27154 | 32838 ft | 481 kts | 130° |
| 2026-05-08 02:16 | 5.03499 | 82.32237 | 32839 ft | 481 kts | 130° |
| 2026-05-08 02:16 | 4.99142 | 82.37286 | 32835 ft | 481 kts | 130° |
| 2026-05-08 02:17 | 4.94758 | 82.42365 | 32834 ft | 482 kts | 130° |
| 2026-05-08 02:17 | 4.90367 | 82.47451 | 32833 ft | 482 kts | 130° |
| 2026-05-08 02:18 | 4.85976 | 82.52536 | 32834 ft | 482 kts | 130° |
| 2026-05-08 02:18 | 4.81583 | 82.57623 | 32833 ft | 482 kts | 130° |
| 2026-05-08 02:19 | 4.77191 | 82.62707 | 32833 ft | 482 kts | 130° |
| 2026-05-08 02:19 | 4.72826 | 82.67758 | 32842 ft | 482 kts | 130° |
| 2026-05-08 02:20 | 4.68433 | 82.72841 | 32847 ft | 482 kts | 130° |
| 2026-05-08 02:20 | 4.64042 | 82.77921 | 32834 ft | 482 kts | 130° |
| 2026-05-08 02:21 | 4.59650 | 82.83001 | 32855 ft | 482 kts | 130° |
| 2026-05-08 02:21 | 4.55250 | 82.88088 | 32852 ft | 482 kts | 130° |
| 2026-05-08 02:22 | 4.50885 | 82.93134 | 32836 ft | 482 kts | 130° |
| 2026-05-08 02:22 | 4.46491 | 82.98214 | 32826 ft | 482 kts | 130° |
| 2026-05-08 02:23 | 4.42095 | 83.03294 | 32835 ft | 482 kts | 130° |
| 2026-05-08 02:23 | 4.37701 | 83.08371 | 32838 ft | 482 kts | 130° |
| 2026-05-08 02:24 | 4.33302 | 83.13453 | 32850 ft | 482 kts | 130° |
| 2026-05-08 02:24 | 4.28932 | 83.18500 | 32855 ft | 482 kts | 130° |
| 2026-05-08 02:25 | 4.24534 | 83.23579 | 32832 ft | 482 kts | 130° |
| 2026-05-08 02:25 | 4.20148 | 83.28643 | 32829 ft | 482 kts | 130° |
| 2026-05-08 02:26 | 4.15759 | 83.33709 | 32831 ft | 481 kts | 130° |
| 2026-05-08 02:26 | 4.11361 | 83.38785 | 32839 ft | 481 kts | 130° |
| 2026-05-08 02:27 | 4.06972 | 83.43849 | 32855 ft | 481 kts | 130° |
| 2026-05-08 02:27 | 4.02610 | 83.48881 | 32850 ft | 481 kts | 130° |
| 2026-05-08 02:28 | 3.98219 | 83.53946 | 32832 ft | 481 kts | 130° |
| 2026-05-08 02:28 | 3.93830 | 83.59007 | 32831 ft | 481 kts | 130° |
| 2026-05-08 02:29 | 3.89439 | 83.64071 | 32831 ft | 481 kts | 130° |
| 2026-05-08 02:29 | 3.85037 | 83.69146 | 32855 ft | 481 kts | 130° |
| 2026-05-08 02:30 | 3.80675 | 83.74174 | 32859 ft | 481 kts | 130° |
| 2026-05-08 02:30 | 3.76273 | 83.79247 | 32853 ft | 481 kts | 130° |
| 2026-05-08 02:31 | 3.71884 | 83.84304 | 32825 ft | 481 kts | 130° |
| 2026-05-08 02:31 | 3.67492 | 83.89364 | 32829 ft | 481 kts | 130° |
| 2026-05-08 02:32 | 3.63126 | 83.94394 | 32826 ft | 481 kts | 130° |
| 2026-05-08 02:32 | 3.59475 | 83.98598 | 32825 ft | 481 kts | 130° |
| 2026-05-08 02:33 | 3.55089 | 84.03650 | 32827 ft | 481 kts | 130° |
| 2026-05-08 02:33 | 3.50676 | 84.08688 | 32850 ft | 480 kts | 131° |
| 2026-05-08 02:34 | 3.46204 | 84.13620 | 32857 ft | 480 kts | 131° |
| 2026-05-08 02:34 | 3.41711 | 84.18580 | 32854 ft | 480 kts | 131° |
| 2026-05-08 02:35 | 3.37233 | 84.23543 | 32837 ft | 480 kts | 131° |
| 2026-05-08 02:35 | 3.32761 | 84.28504 | 32827 ft | 480 kts | 131° |
| 2026-05-08 02:36 | 3.28286 | 84.33467 | 32830 ft | 480 kts | 131° |
| 2026-05-08 02:36 | 3.23812 | 84.38427 | 32853 ft | 480 kts | 131° |
| 2026-05-08 02:37 | 3.19335 | 84.43390 | 32854 ft | 480 kts | 131° |
| 2026-05-08 02:37 | 3.14861 | 84.48350 | 32837 ft | 480 kts | 131° |
| 2026-05-08 02:38 | 3.10409 | 84.53284 | 32826 ft | 481 kts | 131° |
| 2026-05-08 02:38 | 3.05920 | 84.58259 | 32822 ft | 481 kts | 131° |
| 2026-05-08 02:39 | 3.01427 | 84.63237 | 32836 ft | 481 kts | 131° |
| 2026-05-08 02:39 | 2.96966 | 84.68179 | 32852 ft | 481 kts | 131° |
| 2026-05-08 02:40 | 2.92471 | 84.73158 | 32851 ft | 482 kts | 131° |
| 2026-05-08 02:40 | 2.87972 | 84.78141 | 32833 ft | 482 kts | 131° |
| 2026-05-08 02:41 | 2.83465 | 84.83133 | 32826 ft | 483 kts | 131° |
| 2026-05-08 02:41 | 2.78960 | 84.88121 | 32828 ft | 483 kts | 131° |
| 2026-05-08 02:42 | 2.74481 | 84.93080 | 32859 ft | 483 kts | 131° |
| 2026-05-08 02:42 | 2.69968 | 84.98075 | 32859 ft | 483 kts | 131° |
| 2026-05-08 02:43 | 2.65450 | 85.03076 | 32835 ft | 484 kts | 131° |
| 2026-05-08 02:43 | 2.60931 | 85.08077 | 32831 ft | 484 kts | 131° |
| 2026-05-08 02:44 | 2.56412 | 85.13078 | 32839 ft | 484 kts | 131° |
| 2026-05-08 02:44 | 2.51924 | 85.18044 | 32856 ft | 484 kts | 131° |
| 2026-05-08 02:45 | 2.47408 | 85.23040 | 32864 ft | 484 kts | 131° |
| 2026-05-08 02:45 | 2.42889 | 85.28039 | 32857 ft | 484 kts | 131° |
| 2026-05-08 02:46 | 2.38372 | 85.33036 | 32837 ft | 484 kts | 131° |
| 2026-05-08 02:46 | 2.33860 | 85.38027 | 32832 ft | 484 kts | 131° |
| 2026-05-08 02:47 | 2.29365 | 85.42997 | 32840 ft | 484 kts | 131° |
| 2026-05-08 02:47 | 2.24848 | 85.47992 | 32863 ft | 483 kts | 131° |
| 2026-05-08 02:48 | 2.20357 | 85.52958 | 32867 ft | 483 kts | 131° |
| 2026-05-08 02:48 | 2.15838 | 85.57953 | 32859 ft | 483 kts | 131° |
| 2026-05-08 02:49 | 2.11324 | 85.62943 | 32841 ft | 484 kts | 131° |
| 2026-05-08 02:49 | 2.06835 | 85.67906 | 32840 ft | 483 kts | 131° |
| 2026-05-08 02:50 | 2.02317 | 85.72900 | 32847 ft | 483 kts | 131° |
| 2026-05-08 02:50 | 1.97805 | 85.77885 | 32872 ft | 483 kts | 131° |
| 2026-05-08 02:51 | 1.93297 | 85.82867 | 32865 ft | 483 kts | 131° |
| 2026-05-08 02:51 | 1.88792 | 85.87845 | 32852 ft | 483 kts | 131° |
| 2026-05-08 02:52 | 1.84320 | 85.92787 | 32840 ft | 483 kts | 131° |
| 2026-05-08 02:52 | 1.79799 | 85.97781 | 32845 ft | 482 kts | 131° |
| 2026-05-08 02:53 | 1.75292 | 86.02760 | 32868 ft | 482 kts | 131° |
| 2026-05-08 02:53 | 1.70811 | 86.07709 | 32872 ft | 482 kts | 131° |
| 2026-05-08 02:54 | 1.66306 | 86.12685 | 32866 ft | 482 kts | 131° |
| 2026-05-08 02:54 | 1.61799 | 86.17660 | 32843 ft | 483 kts | 131° |
| 2026-05-08 02:55 | 1.54861 | 86.24915 | 32840 ft | 483 kts | 133° |
| 2026-05-08 02:56 | 1.50205 | 86.29762 | 32861 ft | 483 kts | 133° |
| 2026-05-08 02:56 | 1.45548 | 86.34635 | 32867 ft | 484 kts | 132° |
| 2026-05-08 02:57 | 1.40898 | 86.39504 | 32866 ft | 484 kts | 132° |
| 2026-05-08 02:57 | 1.36259 | 86.44360 | 32840 ft | 485 kts | 132° |
| 2026-05-08 02:58 | 1.31573 | 86.49267 | 32839 ft | 485 kts | 132° |
| 2026-05-08 02:58 | 1.26942 | 86.54114 | 32859 ft | 485 kts | 132° |
| 2026-05-08 02:59 | 1.22277 | 86.58998 | 32873 ft | 485 kts | 132° |
| 2026-05-08 02:59 | 1.17613 | 86.63880 | 32868 ft | 485 kts | 132° |
| 2026-05-08 03:00 | 1.12949 | 86.68762 | 32865 ft | 485 kts | 132° |
| 2026-05-08 03:00 | 1.08291 | 86.73637 | 32869 ft | 484 kts | 133° |
| 2026-05-08 03:01 | 1.03672 | 86.78471 | 32867 ft | 483 kts | 133° |
| 2026-05-08 03:01 | 0.99024 | 86.83335 | 32869 ft | 483 kts | 133° |
| 2026-05-08 03:02 | 0.94379 | 86.88197 | 32867 ft | 482 kts | 133° |
| 2026-05-08 03:02 | 0.89750 | 86.93040 | 32872 ft | 481 kts | 133° |
| 2026-05-08 03:03 | 0.85124 | 86.97880 | 32849 ft | 481 kts | 133° |
| 2026-05-08 03:03 | 0.80536 | 87.02681 | 32844 ft | 481 kts | 132° |
| 2026-05-08 03:04 | 0.75913 | 87.07518 | 32851 ft | 480 kts | 132° |
| 2026-05-08 03:04 | 0.71293 | 87.12352 | 32871 ft | 480 kts | 132° |
| 2026-05-08 03:05 | 0.66678 | 87.17180 | 32874 ft | 480 kts | 132° |
| 2026-05-08 03:05 | 0.62063 | 87.22009 | 32870 ft | 480 kts | 132° |
| 2026-05-08 03:06 | 0.57447 | 87.26837 | 32850 ft | 480 kts | 132° |
| 2026-05-08 03:06 | 0.52828 | 87.31670 | 32850 ft | 480 kts | 132° |
| 2026-05-08 03:07 | 0.48244 | 87.36466 | 32854 ft | 480 kts | 132° |
| 2026-05-08 03:07 | 0.43619 | 87.41305 | 32875 ft | 480 kts | 132° |
| 2026-05-08 03:08 | 0.39003 | 87.46134 | 32871 ft | 480 kts | 132° |
| 2026-05-08 03:08 | 0.34378 | 87.50974 | 32850 ft | 481 kts | 132° |
| 2026-05-08 03:09 | 0.29778 | 87.55786 | 32842 ft | 481 kts | 132° |
| 2026-05-08 03:09 | 0.25156 | 87.60622 | 32851 ft | 481 kts | 132° |
| 2026-05-08 03:10 | 0.20534 | 87.65458 | 32875 ft | 481 kts | 132° |
| 2026-05-08 03:10 | 0.15914 | 87.70291 | 32879 ft | 481 kts | 132° |
| 2026-05-08 03:11 | 0.11289 | 87.75131 | 32858 ft | 481 kts | 132° |
| 2026-05-08 03:11 | 0.06670 | 87.79962 | 32853 ft | 481 kts | 132° |
| 2026-05-08 03:12 | 0.02075 | 87.84770 | 32853 ft | 481 kts | 132° |
| 2026-05-08 03:12 | -0.02548 | 87.89606 | 32879 ft | 480 kts | 132° |
| 2026-05-08 03:13 | -0.07164 | 87.94436 | 32887 ft | 480 kts | 132° |
| 2026-05-08 03:13 | -0.11779 | 87.99265 | 32880 ft | 480 kts | 132° |
| 2026-05-08 03:14 | -0.16383 | 88.04081 | 32852 ft | 479 kts | 132° |
| 2026-05-08 03:14 | -0.20986 | 88.08898 | 32852 ft | 479 kts | 132° |
| 2026-05-08 03:15 | -0.25558 | 88.13681 | 32859 ft | 478 kts | 132° |
| 2026-05-08 03:15 | -0.30157 | 88.18493 | 32882 ft | 478 kts | 132° |
| 2026-05-08 03:16 | -0.34750 | 88.23299 | 32878 ft | 478 kts | 132° |
| 2026-05-08 03:16 | -0.39341 | 88.28102 | 32857 ft | 478 kts | 132° |
| 2026-05-08 03:17 | -0.43933 | 88.32907 | 32849 ft | 478 kts | 132° |
| 2026-05-08 03:17 | -0.48533 | 88.37721 | 32856 ft | 478 kts | 132° |
| 2026-05-08 03:18 | -0.53126 | 88.42526 | 32870 ft | 478 kts | 132° |
| 2026-05-08 03:18 | -0.57693 | 88.47305 | 32868 ft | 478 kts | 132° |
| 2026-05-08 03:19 | -0.62304 | 88.52130 | 32874 ft | 478 kts | 132° |
| 2026-05-08 03:19 | -0.66899 | 88.56938 | 32874 ft | 478 kts | 132° |
| 2026-05-08 03:20 | -0.71497 | 88.61750 | 32874 ft | 478 kts | 132° |
| 2026-05-08 03:20 | -0.76093 | 88.66560 | 32876 ft | 479 kts | 132° |
| 2026-05-08 03:21 | -0.80676 | 88.71356 | 32866 ft | 479 kts | 132° |
| 2026-05-08 03:21 | -0.85279 | 88.76172 | 32887 ft | 479 kts | 132° |
| 2026-05-08 03:22 | -0.89113 | 88.80186 | 32870 ft | 479 kts | 132° |
| 2026-05-08 03:22 | -0.93718 | 88.85005 | 32888 ft | 479 kts | 132° |
| 2026-05-08 03:23 | -0.98291 | 88.89791 | 32886 ft | 479 kts | 132° |
| 2026-05-08 03:23 | -1.02892 | 88.94608 | 32866 ft | 479 kts | 132° |
| 2026-05-08 03:24 | -1.07502 | 88.99427 | 32863 ft | 479 kts | 132° |
| 2026-05-08 03:24 | -1.12116 | 89.04247 | 32869 ft | 479 kts | 132° |
| 2026-05-08 03:25 | -1.16688 | 89.09026 | 32891 ft | 478 kts | 132° |
| 2026-05-08 03:25 | -1.21297 | 89.13844 | 32892 ft | 478 kts | 132° |
| 2026-05-08 03:26 | -1.25895 | 89.18650 | 32876 ft | 478 kts | 132° |
| 2026-05-08 03:26 | -1.30493 | 89.23457 | 32863 ft | 478 kts | 132° |
| 2026-05-08 03:27 | -1.35089 | 89.28262 | 32873 ft | 478 kts | 132° |
| 2026-05-08 03:27 | -1.39654 | 89.33035 | 32877 ft | 478 kts | 132° |
| 2026-05-08 03:28 | -1.44249 | 89.37839 | 32879 ft | 478 kts | 132° |
| 2026-05-08 03:28 | -1.48843 | 89.42643 | 32875 ft | 478 kts | 132° |
| 2026-05-08 03:29 | -1.53443 | 89.47453 | 32873 ft | 478 kts | 132° |
| 2026-05-08 03:29 | -1.58049 | 89.52270 | 32877 ft | 478 kts | 132° |
| 2026-05-08 03:30 | -1.64948 | 89.59486 | 32884 ft | 478 kts | 132° |
| 2026-05-08 03:31 | -1.74134 | 89.69094 | 32880 ft | 479 kts | 132° |
| 2026-05-08 03:32 | -1.81014 | 89.76292 | 32877 ft | 479 kts | 132° |
| 2026-05-08 03:32 | -1.85619 | 89.81109 | 32882 ft | 479 kts | 132° |
| 2026-05-08 03:33 | -1.90225 | 89.85929 | 32878 ft | 479 kts | 133° |
| 2026-05-08 03:33 | -1.94838 | 89.90756 | 32872 ft | 479 kts | 133° |
| 2026-05-08 03:34 | -1.99449 | 89.95581 | 32893 ft | 479 kts | 133° |
| 2026-05-08 03:34 | -2.04005 | 90.00455 | 32895 ft | 479 kts | 131° |
| 2026-05-08 03:35 | -2.08477 | 90.05349 | 32879 ft | 479 kts | 131° |
| 2026-05-08 03:35 | -2.12991 | 90.10265 | 32869 ft | 480 kts | 131° |
| 2026-05-08 03:36 | -2.17510 | 90.15175 | 32866 ft | 480 kts | 131° |
| 2026-05-08 03:36 | -2.22038 | 90.20093 | 32891 ft | 480 kts | 131° |
| 2026-05-08 03:37 | -2.26561 | 90.25007 | 32889 ft | 480 kts | 131° |
| 2026-05-08 03:37 | -2.31062 | 90.29898 | 32870 ft | 480 kts | 131° |
| 2026-05-08 03:38 | -2.35593 | 90.34821 | 32861 ft | 481 kts | 131° |
| 2026-05-08 03:38 | -2.40119 | 90.39739 | 32863 ft | 481 kts | 131° |
| 2026-05-08 03:39 | -2.44653 | 90.44668 | 32891 ft | 481 kts | 131° |
| 2026-05-08 03:39 | -2.49185 | 90.49594 | 32891 ft | 481 kts | 131° |
| 2026-05-08 03:40 | -2.53728 | 90.54533 | 32866 ft | 482 kts | 131° |
| 2026-05-08 03:40 | -2.58265 | 90.59466 | 32861 ft | 482 kts | 131° |
| 2026-05-08 03:41 | -2.62787 | 90.64383 | 32872 ft | 482 kts | 131° |
| 2026-05-08 03:41 | -2.67336 | 90.69330 | 32892 ft | 482 kts | 131° |
| 2026-05-08 03:42 | -2.71879 | 90.74270 | 32897 ft | 482 kts | 132° |
| 2026-05-08 03:42 | -2.76392 | 90.79180 | 32870 ft | 482 kts | 132° |
| 2026-05-08 03:43 | -2.80944 | 90.84132 | 32867 ft | 482 kts | 132° |
| 2026-05-08 03:43 | -2.85481 | 90.89068 | 32873 ft | 482 kts | 132° |
| 2026-05-08 03:44 | -2.90015 | 90.94002 | 32894 ft | 481 kts | 132° |
| 2026-05-08 03:44 | -2.94550 | 90.98937 | 32892 ft | 481 kts | 132° |
| 2026-05-08 03:45 | -2.99084 | 91.03873 | 32865 ft | 481 kts | 132° |
| 2026-05-08 03:45 | -3.03583 | 91.08769 | 32859 ft | 481 kts | 132° |
| 2026-05-08 03:46 | -3.08117 | 91.13706 | 32869 ft | 481 kts | 132° |
| 2026-05-08 03:46 | -3.12647 | 91.18639 | 32892 ft | 481 kts | 132° |
| 2026-05-08 03:47 | -3.17180 | 91.23575 | 32883 ft | 482 kts | 132° |
| 2026-05-08 03:47 | -3.21715 | 91.28515 | 32875 ft | 482 kts | 132° |
| 2026-05-08 03:48 | -3.26252 | 91.33457 | 32867 ft | 482 kts | 132° |
| 2026-05-08 03:48 | -3.30793 | 91.38405 | 32872 ft | 482 kts | 132° |
| 2026-05-08 03:49 | -3.35313 | 91.43330 | 32890 ft | 483 kts | 132° |
| 2026-05-08 03:49 | -3.39860 | 91.48285 | 32888 ft | 483 kts | 132° |
| 2026-05-08 03:50 | -3.44411 | 91.53246 | 32872 ft | 484 kts | 132° |
| 2026-05-08 03:50 | -3.48968 | 91.58213 | 32859 ft | 484 kts | 132° |
| 2026-05-08 03:51 | -3.53530 | 91.63187 | 32873 ft | 484 kts | 132° |
| 2026-05-08 03:51 | -3.58057 | 91.68124 | 32891 ft | 484 kts | 132° |
| 2026-05-08 03:52 | -3.62622 | 91.73101 | 32893 ft | 485 kts | 132° |
| 2026-05-08 03:52 | -3.67190 | 91.78085 | 32865 ft | 485 kts | 132° |
| 2026-05-08 03:53 | -3.71762 | 91.83072 | 32864 ft | 486 kts | 132° |
| 2026-05-08 03:53 | -3.76331 | 91.88058 | 32889 ft | 486 kts | 132° |
| 2026-05-08 03:54 | -3.80873 | 91.93015 | 32897 ft | 486 kts | 131° |
| 2026-05-08 03:54 | -3.85455 | 91.98016 | 32892 ft | 486 kts | 132° |
| 2026-05-08 03:55 | -3.90038 | 92.03019 | 32864 ft | 487 kts | 131° |
| 2026-05-08 03:55 | -3.94618 | 92.08021 | 32866 ft | 487 kts | 132° |
| 2026-05-08 03:56 | -3.99180 | 92.13003 | 32893 ft | 487 kts | 131° |
| 2026-05-08 03:56 | -4.03758 | 92.18003 | 32899 ft | 486 kts | 132° |
| 2026-05-08 03:57 | -4.08335 | 92.23004 | 32891 ft | 487 kts | 132° |
| 2026-05-08 03:57 | -4.12911 | 92.28003 | 32868 ft | 487 kts | 132° |
| 2026-05-08 03:58 | -4.17453 | 92.32967 | 32869 ft | 486 kts | 132° |
| 2026-05-08 03:58 | -4.22029 | 92.37970 | 32891 ft | 486 kts | 132° |
| 2026-05-08 03:59 | -4.26602 | 92.42969 | 32899 ft | 485 kts | 132° |
| 2026-05-08 03:59 | -4.31173 | 92.47967 | 32891 ft | 485 kts | 132° |
| 2026-05-08 04:00 | -4.35735 | 92.52957 | 32865 ft | 485 kts | 132° |
| 2026-05-08 04:00 | -4.40262 | 92.57909 | 32873 ft | 485 kts | 132° |
| 2026-05-08 04:01 | -4.44822 | 92.62901 | 32886 ft | 485 kts | 132° |
| 2026-05-08 04:01 | -4.49376 | 92.67884 | 32892 ft | 485 kts | 132° |
| 2026-05-08 04:02 | -4.53929 | 92.72866 | 32890 ft | 485 kts | 132° |
| 2026-05-08 04:02 | -4.58489 | 92.77858 | 32868 ft | 485 kts | 132° |
| 2026-05-08 04:03 | -4.63051 | 92.82851 | 32866 ft | 485 kts | 132° |
| 2026-05-08 04:03 | -4.69897 | 92.90346 | 32891 ft | 485 kts | 131° |
| 2026-05-08 04:04 | -4.74456 | 92.95341 | 32881 ft | 486 kts | 132° |
| 2026-05-08 04:04 | -4.78988 | 93.00306 | 32868 ft | 486 kts | 132° |
| 2026-05-08 04:05 | -4.83554 | 93.05310 | 32863 ft | 486 kts | 132° |
| 2026-05-08 04:05 | -4.88115 | 93.10311 | 32873 ft | 486 kts | 132° |
| 2026-05-08 04:06 | -4.92690 | 93.15325 | 32898 ft | 486 kts | 132° |
| 2026-05-08 04:06 | -4.97259 | 93.20335 | 32873 ft | 486 kts | 132° |
| 2026-05-08 04:07 | -5.01830 | 93.25349 | 32865 ft | 487 kts | 132° |
| 2026-05-08 04:07 | -5.06377 | 93.30336 | 32868 ft | 487 kts | 132° |
| 2026-05-08 04:08 | -5.10185 | 93.34514 | 32866 ft | 487 kts | 132° |
| 2026-05-08 04:08 | -5.14753 | 93.39528 | 32870 ft | 486 kts | 132° |
| 2026-05-08 04:09 | -5.20059 | 93.45352 | 32870 ft | 487 kts | 132° |
| 2026-05-08 04:09 | -5.23888 | 93.49557 | 32892 ft | 487 kts | 132° |
| 2026-05-08 04:10 | -5.28429 | 93.54545 | 32872 ft | 487 kts | 132° |
| 2026-05-08 04:10 | -5.33008 | 93.59575 | 32865 ft | 487 kts | 132° |
| 2026-05-08 04:11 | -5.37575 | 93.64593 | 32869 ft | 487 kts | 132° |
| 2026-05-08 04:11 | -5.42117 | 93.69586 | 32890 ft | 487 kts | 132° |
| 2026-05-08 04:12 | -5.46679 | 93.74600 | 32897 ft | 485 kts | 132° |
| 2026-05-08 04:12 | -5.51225 | 93.79599 | 32890 ft | 484 kts | 132° |
| 2026-05-08 04:13 | -5.55772 | 93.84600 | 32871 ft | 485 kts | 132° |
| 2026-05-08 04:13 | -5.60323 | 93.89606 | 32866 ft | 486 kts | 132° |
| 2026-05-08 04:14 | -5.64880 | 93.94620 | 32870 ft | 486 kts | 132° |
| 2026-05-08 04:14 | -5.69439 | 93.99639 | 32891 ft | 486 kts | 132° |
| 2026-05-08 04:15 | -5.73981 | 94.04639 | 32878 ft | 487 kts | 132° |
| 2026-05-08 04:15 | -5.78550 | 94.09671 | 32879 ft | 488 kts | 132° |
| 2026-05-08 04:16 | -5.83126 | 94.14711 | 32882 ft | 488 kts | 132° |
| 2026-05-08 04:16 | -5.87710 | 94.19762 | 32872 ft | 489 kts | 132° |
| 2026-05-08 04:17 | -5.92293 | 94.24813 | 32879 ft | 489 kts | 132° |
| 2026-05-08 04:17 | -5.96888 | 94.29878 | 32891 ft | 490 kts | 132° |
| 2026-05-08 04:18 | -6.01449 | 94.34908 | 32899 ft | 490 kts | 132° |
| 2026-05-08 04:18 | -6.06041 | 94.39973 | 32893 ft | 490 kts | 132° |
| 2026-05-08 04:19 | -6.10651 | 94.45058 | 32867 ft | 491 kts | 132° |
| 2026-05-08 04:19 | -6.15252 | 94.50137 | 32867 ft | 491 kts | 132° |
| 2026-05-08 04:20 | -6.19821 | 94.55180 | 32892 ft | 491 kts | 132° |
| 2026-05-08 04:20 | -6.24413 | 94.60251 | 32894 ft | 491 kts | 132° |
| 2026-05-08 04:21 | -6.29008 | 94.65326 | 32872 ft | 491 kts | 132° |
| 2026-05-08 04:21 | -6.33613 | 94.70415 | 32871 ft | 491 kts | 132° |
| 2026-05-08 04:22 | -6.38214 | 94.75499 | 32870 ft | 491 kts | 132° |
| 2026-05-08 04:22 | -6.42818 | 94.80588 | 32894 ft | 491 kts | 132° |
| 2026-05-08 04:23 | -6.47421 | 94.85678 | 32896 ft | 491 kts | 132° |
| 2026-05-08 04:23 | -6.51993 | 94.90735 | 32875 ft | 492 kts | 132° |
| 2026-05-08 04:24 | -6.56599 | 94.95831 | 32870 ft | 492 kts | 132° |
| 2026-05-08 04:24 | -6.61207 | 95.00932 | 32890 ft | 492 kts | 132° |
| 2026-05-08 04:25 | -6.65812 | 95.06030 | 32899 ft | 492 kts | 132° |
| 2026-05-08 04:25 | -6.70419 | 95.11132 | 32892 ft | 492 kts | 132° |
| 2026-05-08 04:26 | -6.74996 | 95.16202 | 32868 ft | 492 kts | 132° |
| 2026-05-08 04:26 | -6.79601 | 95.21305 | 32865 ft | 492 kts | 132° |
| 2026-05-08 04:27 | -6.84213 | 95.26417 | 32882 ft | 492 kts | 132° |
| 2026-05-08 04:27 | -6.88818 | 95.31522 | 32898 ft | 492 kts | 132° |
| 2026-05-08 04:28 | -6.93424 | 95.36631 | 32877 ft | 493 kts | 132° |
| 2026-05-08 04:28 | -6.98003 | 95.41712 | 32870 ft | 493 kts | 131° |
| 2026-05-08 04:29 | -7.02614 | 95.46830 | 32867 ft | 493 kts | 131° |
| 2026-05-08 04:29 | -7.07220 | 95.51943 | 32878 ft | 493 kts | 131° |
| 2026-05-08 04:30 | -7.11831 | 95.57063 | 32895 ft | 493 kts | 131° |
| 2026-05-08 04:30 | -7.16449 | 95.62194 | 32882 ft | 494 kts | 131° |
| 2026-05-08 04:31 | -7.21037 | 95.67293 | 32873 ft | 494 kts | 131° |
| 2026-05-08 04:31 | -7.25654 | 95.72426 | 32872 ft | 494 kts | 131° |
| 2026-05-08 04:32 | -7.30279 | 95.77568 | 32897 ft | 494 kts | 131° |
| 2026-05-08 04:32 | -7.34896 | 95.82703 | 32894 ft | 494 kts | 131° |
| 2026-05-08 04:33 | -7.39486 | 95.87811 | 32876 ft | 495 kts | 131° |
| 2026-05-08 04:33 | -7.44108 | 95.92956 | 32864 ft | 495 kts | 131° |
| 2026-05-08 04:34 | -7.48731 | 95.98104 | 32868 ft | 495 kts | 131° |
| 2026-05-08 04:34 | -7.53353 | 96.03252 | 32894 ft | 495 kts | 131° |
| 2026-05-08 04:35 | -7.57982 | 96.08410 | 32891 ft | 496 kts | 131° |
| 2026-05-08 04:35 | -7.62614 | 96.13574 | 32871 ft | 497 kts | 131° |
| 2026-05-08 04:36 | -7.67218 | 96.18708 | 32868 ft | 497 kts | 131° |
| 2026-05-08 04:36 | -7.71861 | 96.23886 | 32881 ft | 497 kts | 131° |
| 2026-05-08 04:37 | -7.76500 | 96.29062 | 32898 ft | 496 kts | 131° |
| 2026-05-08 04:37 | -7.81134 | 96.34235 | 32884 ft | 497 kts | 131° |
| 2026-05-08 04:38 | -7.85743 | 96.39382 | 32872 ft | 497 kts | 131° |
| 2026-05-08 04:38 | -7.90386 | 96.44568 | 32866 ft | 497 kts | 131° |
| 2026-05-08 04:39 | -7.95021 | 96.49747 | 32894 ft | 497 kts | 131° |
| 2026-05-08 04:39 | -7.99662 | 96.54935 | 32894 ft | 497 kts | 131° |
| 2026-05-08 04:40 | -8.04304 | 96.60125 | 32872 ft | 498 kts | 131° |
| 2026-05-08 04:40 | -8.08916 | 96.65284 | 32863 ft | 498 kts | 131° |
| 2026-05-08 04:41 | -8.13566 | 96.70488 | 32867 ft | 498 kts | 131° |
| 2026-05-08 04:41 | -8.18202 | 96.75678 | 32894 ft | 497 kts | 131° |
| 2026-05-08 04:42 | -8.22814 | 96.80844 | 32898 ft | 497 kts | 131° |
| 2026-05-08 04:42 | -8.27447 | 96.86034 | 32874 ft | 497 kts | 131° |
| 2026-05-08 04:43 | -8.32081 | 96.91227 | 32870 ft | 497 kts | 131° |
| 2026-05-08 04:43 | -8.36702 | 96.96407 | 32868 ft | 497 kts | 131° |
| 2026-05-08 04:44 | -8.41335 | 97.01604 | 32894 ft | 496 kts | 131° |
| 2026-05-08 04:44 | -8.45957 | 97.06790 | 32895 ft | 496 kts | 131° |
| 2026-05-08 04:45 | -8.50578 | 97.11978 | 32868 ft | 497 kts | 131° |
| 2026-05-08 04:45 | -8.55174 | 97.17138 | 32859 ft | 497 kts | 131° |
| 2026-05-08 04:46 | -8.59797 | 97.22331 | 32877 ft | 496 kts | 131° |
| 2026-05-08 04:46 | -8.64412 | 97.27518 | 32895 ft | 496 kts | 131° |
| 2026-05-08 04:47 | -8.69035 | 97.32715 | 32884 ft | 497 kts | 131° |
| 2026-05-08 04:47 | -8.73656 | 97.37912 | 32868 ft | 497 kts | 131° |
| 2026-05-08 04:48 | -8.78280 | 97.43114 | 32872 ft | 497 kts | 131° |
| 2026-05-08 04:48 | -8.82903 | 97.48318 | 32893 ft | 497 kts | 131° |
| 2026-05-08 04:49 | -8.87489 | 97.53483 | 32897 ft | 497 kts | 131° |
| 2026-05-08 04:49 | -8.92113 | 97.58691 | 32874 ft | 497 kts | 131° |
| 2026-05-08 04:50 | -8.96741 | 97.63907 | 32874 ft | 498 kts | 131° |
| 2026-05-08 04:50 | -9.01369 | 97.69124 | 32893 ft | 498 kts | 131° |
| 2026-05-08 04:51 | -9.06000 | 97.74347 | 32876 ft | 499 kts | 131° |
| 2026-05-08 04:51 | -9.10635 | 97.79578 | 32868 ft | 499 kts | 131° |
| 2026-05-08 04:52 | -9.15249 | 97.84788 | 32872 ft | 499 kts | 131° |
| 2026-05-08 04:52 | -9.19890 | 97.90028 | 32889 ft | 500 kts | 131° |
| 2026-05-08 04:53 | -9.24530 | 97.95270 | 32869 ft | 500 kts | 131° |
| 2026-05-08 04:53 | -9.29174 | 98.00519 | 32872 ft | 501 kts | 131° |
| 2026-05-08 04:54 | -9.33829 | 98.05784 | 32889 ft | 501 kts | 131° |
| 2026-05-08 04:54 | -9.38479 | 98.11043 | 32874 ft | 501 kts | 131° |
| 2026-05-08 04:55 | -9.43104 | 98.16279 | 32872 ft | 501 kts | 131° |
| 2026-05-08 04:55 | -9.47760 | 98.21549 | 32878 ft | 502 kts | 131° |
| 2026-05-08 04:56 | -9.51664 | 98.25973 | 32874 ft | 503 kts | 131° |
| 2026-05-08 04:56 | -9.57088 | 98.32118 | 32877 ft | 503 kts | 131° |
| 2026-05-08 04:57 | -9.61758 | 98.37412 | 32870 ft | 503 kts | 131° |
| 2026-05-08 04:57 | -9.66397 | 98.42674 | 32867 ft | 504 kts | 131° |
| 2026-05-08 04:58 | -9.70317 | 98.47122 | 32874 ft | 504 kts | 131° |
| 2026-05-08 04:58 | -9.74961 | 98.52394 | 32874 ft | 505 kts | 131° |
| 2026-05-08 04:59 | -9.79650 | 98.57720 | 32880 ft | 505 kts | 131° |
| 2026-05-08 04:59 | -9.84333 | 98.63039 | 32897 ft | 506 kts | 131° |
| 2026-05-08 05:00 | -9.88997 | 98.68342 | 32880 ft | 506 kts | 131° |
| 2026-05-08 05:00 | -9.93686 | 98.73675 | 32876 ft | 507 kts | 131° |
| 2026-05-08 05:01 | -9.98380 | 98.79016 | 32876 ft | 507 kts | 131° |
| 2026-05-08 05:01 | -10.03082 | 98.84369 | 32876 ft | 508 kts | 131° |
| 2026-05-08 05:02 | -10.07758 | 98.89695 | 32884 ft | 508 kts | 131° |
| 2026-05-08 05:02 | -10.12463 | 98.95056 | 32897 ft | 507 kts | 131° |
| 2026-05-08 05:03 | -10.17163 | 99.00414 | 32887 ft | 508 kts | 131° |
| 2026-05-08 05:03 | -10.21865 | 99.05777 | 32886 ft | 508 kts | 131° |
| 2026-05-08 05:04 | -10.26539 | 99.11109 | 32883 ft | 508 kts | 131° |
| 2026-05-08 05:04 | -10.31242 | 99.16479 | 32897 ft | 507 kts | 131° |
| 2026-05-08 05:05 | -10.35942 | 99.21847 | 32903 ft | 509 kts | 131° |
| 2026-05-08 05:05 | -10.40646 | 99.27222 | 32885 ft | 509 kts | 131° |
| 2026-05-08 05:06 | -10.45314 | 99.32558 | 32882 ft | 508 kts | 131° |
| 2026-05-08 05:06 | -10.50024 | 99.37946 | 32889 ft | 509 kts | 131° |
| 2026-05-08 05:07 | -10.54723 | 99.43324 | 32883 ft | 508 kts | 131° |
| 2026-05-08 05:07 | -10.59422 | 99.48705 | 32890 ft | 509 kts | 131° |
| 2026-05-08 05:08 | -10.64095 | 99.54058 | 32886 ft | 509 kts | 131° |
| 2026-05-08 05:08 | -10.68797 | 99.59447 | 32894 ft | 509 kts | 131° |
| 2026-05-08 05:09 | -10.73501 | 99.64840 | 32890 ft | 509 kts | 131° |
| 2026-05-08 05:09 | -10.78200 | 99.70233 | 32886 ft | 509 kts | 131° |
| 2026-05-08 05:10 | -10.85251 | 99.78327 | 32884 ft | 509 kts | 131° |
| 2026-05-08 05:11 | -10.89919 | 99.83690 | 32898 ft | 509 kts | 131° |
| 2026-05-08 05:11 | -10.94619 | 99.89092 | 32890 ft | 509 kts | 131° |
| 2026-05-08 05:12 | -10.99310 | 99.94486 | 32894 ft | 510 kts | 131° |
| 2026-05-08 05:12 | -11.04008 | 99.99891 | 32889 ft | 509 kts | 131° |
| 2026-05-08 05:13 | -11.08696 | 100.05288 | 32888 ft | 509 kts | 131° |
| 2026-05-08 05:13 | -11.13398 | 100.10703 | 32893 ft | 510 kts | 131° |
| 2026-05-08 05:14 | -11.18100 | 100.16121 | 32893 ft | 510 kts | 131° |
| 2026-05-08 05:14 | -11.22761 | 100.21495 | 32888 ft | 510 kts | 131° |
| 2026-05-08 05:15 | -11.27473 | 100.26928 | 32893 ft | 510 kts | 131° |
| 2026-05-08 05:15 | -11.32170 | 100.32347 | 32892 ft | 510 kts | 131° |
| 2026-05-08 05:16 | -11.36837 | 100.37735 | 32897 ft | 510 kts | 131° |
| 2026-05-08 05:16 | -11.41539 | 100.43167 | 32899 ft | 510 kts | 131° |
| 2026-05-08 05:17 | -11.46242 | 100.48601 | 32901 ft | 510 kts | 131° |
| 2026-05-08 05:17 | -11.50934 | 100.54041 | 32899 ft | 511 kts | 131° |
| 2026-05-08 05:18 | -11.55610 | 100.59467 | 32896 ft | 511 kts | 131° |
| 2026-05-08 05:18 | -11.60312 | 100.64915 | 32894 ft | 511 kts | 132° |
| 2026-05-08 05:19 | -11.65008 | 100.70354 | 32895 ft | 511 kts | 132° |
| 2026-05-08 05:19 | -11.69713 | 100.75806 | 32897 ft | 511 kts | 132° |
| 2026-05-08 05:20 | -11.74221 | 100.81035 | 32899 ft | 512 kts | 132° |
| 2026-05-08 05:20 | -11.78328 | 100.85800 | 32893 ft | 512 kts | 132° |
| 2026-05-08 05:21 | -11.83026 | 100.91254 | 32888 ft | 512 kts | 132° |
| 2026-05-08 05:21 | -11.87743 | 100.96733 | 32901 ft | 512 kts | 132° |
| 2026-05-08 05:22 | -11.92437 | 101.02190 | 32895 ft | 512 kts | 132° |
| 2026-05-08 05:22 | -11.97145 | 101.07667 | 32894 ft | 512 kts | 132° |
| 2026-05-08 05:23 | -12.01816 | 101.13104 | 32897 ft | 512 kts | 132° |
| 2026-05-08 05:23 | -12.06512 | 101.18573 | 32901 ft | 512 kts | 132° |
| 2026-05-08 05:24 | -12.11218 | 101.24057 | 32902 ft | 512 kts | 132° |
| 2026-05-08 05:24 | -12.15919 | 101.29537 | 32899 ft | 512 kts | 132° |
| 2026-05-08 05:25 | -12.20617 | 101.35019 | 32900 ft | 512 kts | 132° |
| 2026-05-08 05:25 | -12.25318 | 101.40506 | 32899 ft | 513 kts | 132° |
| 2026-05-08 05:26 | -12.30019 | 101.45996 | 32899 ft | 513 kts | 132° |
| 2026-05-08 05:26 | -12.34686 | 101.51451 | 32901 ft | 513 kts | 132° |
| 2026-05-08 05:27 | -12.39389 | 101.56951 | 32901 ft | 513 kts | 132° |
| 2026-05-08 05:27 | -12.44091 | 101.62454 | 32901 ft | 513 kts | 132° |
| 2026-05-08 05:28 | -12.48792 | 101.67957 | 32898 ft | 513 kts | 132° |
| 2026-05-08 05:28 | -12.53493 | 101.73465 | 32897 ft | 514 kts | 132° |
| 2026-05-08 05:29 | -12.58193 | 101.78974 | 32900 ft | 514 kts | 132° |
| 2026-05-08 05:29 | -12.62899 | 101.84494 | 32901 ft | 514 kts | 132° |
| 2026-05-08 05:30 | -12.67604 | 101.90016 | 32898 ft | 515 kts | 132° |
| 2026-05-08 05:30 | -12.72310 | 101.95542 | 32904 ft | 515 kts | 132° |
| 2026-05-08 05:31 | -12.77021 | 102.01078 | 32904 ft | 515 kts | 132° |
| 2026-05-08 05:31 | -12.81734 | 102.06620 | 32904 ft | 515 kts | 132° |
| 2026-05-08 05:32 | -12.86421 | 102.12134 | 32902 ft | 515 kts | 132° |
| 2026-05-08 05:32 | -12.91130 | 102.17678 | 32902 ft | 516 kts | 132° |
| 2026-05-08 05:33 | -12.95846 | 102.23233 | 32904 ft | 516 kts | 132° |
| 2026-05-08 05:33 | -13.00560 | 102.28790 | 32902 ft | 516 kts | 132° |
| 2026-05-08 05:34 | -13.05270 | 102.34345 | 32899 ft | 516 kts | 132° |
| 2026-05-08 05:34 | -13.09956 | 102.39875 | 32906 ft | 516 kts | 132° |
| 2026-05-08 05:35 | -13.14669 | 102.45442 | 32908 ft | 517 kts | 132° |
| 2026-05-08 05:35 | -13.19393 | 102.51024 | 32909 ft | 517 kts | 132° |
| 2026-05-08 05:36 | -13.24110 | 102.56602 | 32907 ft | 517 kts | 132° |
| 2026-05-08 05:36 | -13.28791 | 102.62140 | 32905 ft | 517 kts | 132° |
| 2026-05-08 05:37 | -13.33497 | 102.67713 | 32911 ft | 517 kts | 132° |
| 2026-05-08 05:37 | -13.38206 | 102.73291 | 32912 ft | 517 kts | 132° |
| 2026-05-08 05:38 | -13.42914 | 102.78873 | 32911 ft | 517 kts | 132° |
| 2026-05-08 05:38 | -13.47627 | 102.84465 | 32906 ft | 517 kts | 132° |
| 2026-05-08 05:39 | -13.52343 | 102.90063 | 32909 ft | 517 kts | 132° |
| 2026-05-08 05:39 | -13.57018 | 102.95616 | 32909 ft | 517 kts | 132° |
| 2026-05-08 05:40 | -13.61732 | 103.01220 | 32912 ft | 517 kts | 132° |
| 2026-05-08 05:40 | -13.66437 | 103.06816 | 32910 ft | 517 kts | 132° |
| 2026-05-08 05:41 | -13.71141 | 103.12415 | 32913 ft | 517 kts | 132° |
| 2026-05-08 05:41 | -13.75810 | 103.17976 | 32914 ft | 517 kts | 132° |
| 2026-05-08 05:42 | -13.80514 | 103.23583 | 32913 ft | 517 kts | 133° |
| 2026-05-08 05:42 | -13.85209 | 103.29183 | 32914 ft | 517 kts | 133° |
| 2026-05-08 05:43 | -13.89927 | 103.34812 | 32912 ft | 517 kts | 133° |
| 2026-05-08 05:43 | -13.94623 | 103.40421 | 32911 ft | 517 kts | 133° |
| 2026-05-08 05:44 | -13.99294 | 103.46003 | 32919 ft | 517 kts | 133° |
| 2026-05-08 05:44 | -14.03990 | 103.51619 | 32916 ft | 517 kts | 133° |
| 2026-05-08 05:45 | -14.08686 | 103.57239 | 32911 ft | 517 kts | 133° |
| 2026-05-08 05:45 | -14.12585 | 103.61908 | 32915 ft | 517 kts | 133° |
| 2026-05-08 05:46 | -14.18046 | 103.68452 | 32916 ft | 517 kts | 133° |
| 2026-05-08 05:46 | -14.21948 | 103.73130 | 32916 ft | 517 kts | 133° |
| 2026-05-08 05:47 | -14.26644 | 103.78765 | 32917 ft | 517 kts | 133° |
| 2026-05-08 05:47 | -14.32094 | 103.85310 | 32917 ft | 517 kts | 133° |
| 2026-05-08 05:48 | -14.36025 | 103.90034 | 32918 ft | 517 kts | 133° |
| 2026-05-08 05:48 | -14.40687 | 103.95639 | 32923 ft | 517 kts | 133° |
| 2026-05-08 05:49 | -14.45382 | 104.01289 | 32924 ft | 517 kts | 133° |
| 2026-05-08 05:49 | -14.50065 | 104.06928 | 32920 ft | 517 kts | 133° |
| 2026-05-08 05:50 | -14.54723 | 104.12540 | 32918 ft | 517 kts | 133° |
| 2026-05-08 05:50 | -14.59415 | 104.18198 | 32921 ft | 518 kts | 133° |
| 2026-05-08 05:51 | -14.64103 | 104.23855 | 32921 ft | 518 kts | 133° |
| 2026-05-08 05:51 | -14.68762 | 104.29480 | 32920 ft | 518 kts | 133° |
| 2026-05-08 05:52 | -14.73444 | 104.35139 | 32922 ft | 518 kts | 133° |
| 2026-05-08 05:52 | -14.78139 | 104.40817 | 32924 ft | 518 kts | 133° |
| 2026-05-08 05:53 | -14.82828 | 104.46490 | 32926 ft | 518 kts | 133° |
| 2026-05-08 05:53 | -14.87477 | 104.52121 | 32929 ft | 518 kts | 133° |
| 2026-05-08 05:54 | -14.92162 | 104.57798 | 32927 ft | 518 kts | 133° |
| 2026-05-08 05:54 | -14.96849 | 104.63483 | 32927 ft | 519 kts | 133° |
| 2026-05-08 05:55 | -15.01510 | 104.69141 | 32926 ft | 519 kts | 133° |
| 2026-05-08 05:55 | -15.06197 | 104.74834 | 32926 ft | 519 kts | 133° |
| 2026-05-08 05:56 | -15.10883 | 104.80530 | 32923 ft | 519 kts | 133° |
| 2026-05-08 05:56 | -15.15539 | 104.86194 | 32928 ft | 519 kts | 133° |
| 2026-05-08 05:57 | -15.20221 | 104.91892 | 32928 ft | 520 kts | 133° |
| 2026-05-08 05:57 | -15.24905 | 104.97600 | 32935 ft | 520 kts | 133° |
| 2026-05-08 05:58 | -15.29593 | 105.03315 | 32933 ft | 520 kts | 133° |
| 2026-05-08 05:58 | -15.34276 | 105.09029 | 32930 ft | 520 kts | 133° |
| 2026-05-08 05:59 | -15.38960 | 105.14747 | 32932 ft | 520 kts | 134° |
| 2026-05-08 05:59 | -15.43614 | 105.20435 | 32936 ft | 520 kts | 134° |
| 2026-05-08 06:00 | -15.48292 | 105.26155 | 32932 ft | 520 kts | 134° |
| 2026-05-08 06:00 | -15.52982 | 105.31895 | 32932 ft | 520 kts | 134° |
| 2026-05-08 06:01 | -15.57625 | 105.37582 | 32936 ft | 520 kts | 134° |
| 2026-05-08 06:01 | -15.62300 | 105.43312 | 32934 ft | 520 kts | 134° |
| 2026-05-08 06:02 | -15.66972 | 105.49043 | 32936 ft | 520 kts | 134° |
| 2026-05-08 06:02 | -15.71652 | 105.54788 | 32934 ft | 520 kts | 134° |
| 2026-05-08 06:03 | -15.76326 | 105.60530 | 32937 ft | 520 kts | 134° |
| 2026-05-08 06:03 | -15.80995 | 105.66271 | 32935 ft | 521 kts | 134° |
| 2026-05-08 06:04 | -15.85669 | 105.72023 | 32933 ft | 521 kts | 134° |
| 2026-05-08 06:04 | -15.90316 | 105.77744 | 32934 ft | 521 kts | 134° |
| 2026-05-08 06:05 | -15.94987 | 105.83501 | 32933 ft | 521 kts | 134° |
| 2026-05-08 06:05 | -15.99658 | 105.89263 | 32936 ft | 521 kts | 134° |
| 2026-05-08 06:06 | -16.04334 | 105.95035 | 32937 ft | 521 kts | 134° |
| 2026-05-08 06:06 | -16.09002 | 106.00802 | 32940 ft | 522 kts | 134° |
| 2026-05-08 06:07 | -16.13650 | 106.06548 | 32942 ft | 522 kts | 134° |
| 2026-05-08 06:07 | -16.18325 | 106.12333 | 32942 ft | 522 kts | 134° |
| 2026-05-08 06:08 | -16.22996 | 106.18117 | 32945 ft | 522 kts | 134° |
| 2026-05-08 06:08 | -16.27668 | 106.23908 | 32929 ft | 522 kts | 134° |
| 2026-05-08 06:09 | -16.32348 | 106.29712 | 32934 ft | 522 kts | 134° |
| 2026-05-08 06:09 | -16.36988 | 106.35472 | 32952 ft | 522 kts | 134° |
| 2026-05-08 06:10 | -16.41659 | 106.41276 | 32956 ft | 523 kts | 134° |
| 2026-05-08 06:10 | -16.46338 | 106.47093 | 32941 ft | 523 kts | 134° |
| 2026-05-08 06:11 | -16.51011 | 106.52910 | 32938 ft | 523 kts | 135° |
| 2026-05-08 06:11 | -16.55687 | 106.58733 | 32944 ft | 523 kts | 135° |
| 2026-05-08 06:12 | -16.60328 | 106.64518 | 32945 ft | 524 kts | 135° |
| 2026-05-08 06:12 | -16.64998 | 106.70343 | 32950 ft | 524 kts | 135° |
| 2026-05-08 06:13 | -16.69680 | 106.76189 | 32945 ft | 524 kts | 135° |
| 2026-05-08 06:13 | -16.74356 | 106.82034 | 32951 ft | 525 kts | 135° |
| 2026-05-08 06:14 | -16.79035 | 106.87885 | 32946 ft | 525 kts | 135° |
| 2026-05-08 06:14 | -16.83715 | 106.93743 | 32949 ft | 525 kts | 135° |
| 2026-05-08 06:15 | -16.88399 | 106.99612 | 32949 ft | 526 kts | 135° |
| 2026-05-08 06:15 | -16.93083 | 107.05485 | 32948 ft | 526 kts | 135° |
| 2026-05-08 06:16 | -16.97744 | 107.11334 | 32950 ft | 527 kts | 135° |
| 2026-05-08 06:16 | -17.02434 | 107.17225 | 32951 ft | 527 kts | 135° |
| 2026-05-08 06:17 | -17.09471 | 107.26073 | 32953 ft | 528 kts | 135° |
| 2026-05-08 06:17 | -17.14164 | 107.31980 | 32955 ft | 528 kts | 135° |
| 2026-05-08 06:18 | -17.18869 | 107.37908 | 32949 ft | 528 kts | 135° |
| 2026-05-08 06:18 | -17.23566 | 107.43830 | 32953 ft | 529 kts | 135° |
| 2026-05-08 06:19 | -17.28232 | 107.49719 | 32951 ft | 529 kts | 135° |
| 2026-05-08 06:19 | -17.32929 | 107.55653 | 32958 ft | 529 kts | 135° |
| 2026-05-08 06:20 | -17.37626 | 107.61591 | 32949 ft | 530 kts | 135° |
| 2026-05-08 06:20 | -17.42328 | 107.67541 | 32957 ft | 530 kts | 135° |
| 2026-05-08 06:21 | -17.47031 | 107.73497 | 32956 ft | 530 kts | 135° |
| 2026-05-08 06:21 | -17.51729 | 107.79453 | 32954 ft | 530 kts | 135° |
| 2026-05-08 06:22 | -17.56399 | 107.85378 | 32953 ft | 531 kts | 136° |
| 2026-05-08 06:22 | -17.61101 | 107.91349 | 32954 ft | 531 kts | 136° |
| 2026-05-08 06:23 | -17.65807 | 107.97331 | 32960 ft | 531 kts | 136° |
| 2026-05-08 06:23 | -17.70511 | 108.03316 | 32948 ft | 531 kts | 136° |
| 2026-05-08 06:24 | -17.75212 | 108.09302 | 32935 ft | 532 kts | 136° |
| 2026-05-08 06:24 | -17.79125 | 108.14289 | 32941 ft | 532 kts | 136° |
| 2026-05-08 06:25 | -17.84602 | 108.21275 | 32961 ft | 532 kts | 136° |
| 2026-05-08 06:25 | -17.89310 | 108.27287 | 32950 ft | 533 kts | 136° |
| 2026-05-08 06:26 | -17.94021 | 108.33308 | 32956 ft | 533 kts | 136° |
| 2026-05-08 06:26 | -17.98737 | 108.39341 | 32956 ft | 533 kts | 136° |
| 2026-05-08 06:27 | -18.03447 | 108.45372 | 32958 ft | 534 kts | 136° |
| 2026-05-08 06:27 | -18.08122 | 108.51363 | 32960 ft | 534 kts | 136° |
| 2026-05-08 06:28 | -18.12833 | 108.57407 | 32961 ft | 534 kts | 136° |
| 2026-05-08 06:28 | -18.17553 | 108.63466 | 32960 ft | 534 kts | 136° |
| 2026-05-08 06:29 | -18.22245 | 108.69495 | 32960 ft | 534 kts | 136° |
| 2026-05-08 06:29 | -18.26189 | 108.74565 | 32962 ft | 534 kts | 136° |
| 2026-05-08 06:30 | -18.31667 | 108.81613 | 32958 ft | 535 kts | 136° |
| 2026-05-08 06:30 | -18.36373 | 108.87675 | 32958 ft | 535 kts | 136° |
| 2026-05-08 06:31 | -18.41089 | 108.93756 | 32964 ft | 535 kts | 136° |
| 2026-05-08 06:31 | -18.45760 | 108.99783 | 32963 ft | 535 kts | 136° |
| 2026-05-08 06:32 | -18.50469 | 109.05869 | 32962 ft | 535 kts | 136° |
| 2026-05-08 06:32 | -18.55171 | 109.11975 | 32961 ft | 536 kts | 136° |
| 2026-05-08 06:33 | -18.59870 | 109.18069 | 32962 ft | 536 kts | 137° |
| 2026-05-08 06:33 | -18.64580 | 109.24173 | 32963 ft | 536 kts | 137° |
| 2026-05-08 06:34 | -18.69263 | 109.30249 | 32963 ft | 536 kts | 137° |
| 2026-05-08 06:34 | -18.73977 | 109.36373 | 32965 ft | 537 kts | 137° |
| 2026-05-08 06:35 | -18.78684 | 109.42494 | 32962 ft | 537 kts | 137° |
| 2026-05-08 06:35 | -18.82602 | 109.47593 | 32961 ft | 537 kts | 137° |
| 2026-05-08 06:36 | -18.87314 | 109.53731 | 32963 ft | 537 kts | 137° |
| 2026-05-08 06:36 | -18.92023 | 109.59871 | 32977 ft | 538 kts | 137° |
| 2026-05-08 06:37 | -18.96734 | 109.66020 | 32964 ft | 538 kts | 137° |
| 2026-05-08 06:37 | -19.01411 | 109.72132 | 32966 ft | 538 kts | 137° |
| 2026-05-08 06:38 | -19.06126 | 109.78298 | 32965 ft | 538 kts | 137° |
| 2026-05-08 06:38 | -19.10833 | 109.84460 | 32968 ft | 538 kts | 137° |
| 2026-05-08 06:39 | -19.15520 | 109.90602 | 32971 ft | 538 kts | 137° |
| 2026-05-08 06:39 | -19.20225 | 109.96775 | 32974 ft | 538 kts | 137° |
| 2026-05-08 06:40 | -19.24930 | 110.02954 | 32973 ft | 538 kts | 137° |
| 2026-05-08 06:40 | -19.29629 | 110.09130 | 32977 ft | 538 kts | 137° |
| 2026-05-08 06:41 | -19.34298 | 110.15273 | 32979 ft | 538 kts | 137° |
| 2026-05-08 06:41 | -19.38992 | 110.21456 | 32980 ft | 538 kts | 137° |
| 2026-05-08 06:42 | -19.43671 | 110.27625 | 32992 ft | 537 kts | 137° |
| 2026-05-08 06:42 | -19.48354 | 110.33806 | 32968 ft | 537 kts | 137° |
| 2026-05-08 06:43 | -19.52998 | 110.39942 | 32978 ft | 537 kts | 137° |
| 2026-05-08 06:43 | -19.57677 | 110.46129 | 32981 ft | 536 kts | 137° |
| 2026-05-08 06:44 | -19.62348 | 110.52313 | 32984 ft | 536 kts | 137° |
| 2026-05-08 06:44 | -19.66982 | 110.58455 | 32987 ft | 536 kts | 137° |
| 2026-05-08 06:45 | -19.71644 | 110.64639 | 32983 ft | 536 kts | 137° |
| 2026-05-08 06:45 | -19.76302 | 110.70826 | 32988 ft | 536 kts | 137° |
| 2026-05-08 06:46 | -19.80956 | 110.77012 | 32990 ft | 536 kts | 137° |
| 2026-05-08 06:46 | -19.85609 | 110.83203 | 32989 ft | 535 kts | 137° |
| 2026-05-08 06:47 | -19.90229 | 110.89359 | 32993 ft | 535 kts | 137° |
| 2026-05-08 06:47 | -19.94870 | 110.95547 | 32995 ft | 535 kts | 137° |
| 2026-05-08 06:48 | -19.99510 | 111.01741 | 32996 ft | 534 kts | 137° |
| 2026-05-08 06:48 | -20.03691 | 111.07329 | 33006 ft | 534 kts | 137° |
| 2026-05-08 06:49 | -20.08313 | 111.13511 | 33003 ft | 533 kts | 137° |
| 2026-05-08 06:49 | -20.12925 | 111.19686 | 33001 ft | 533 kts | 137° |
| 2026-05-08 06:50 | -20.17538 | 111.25870 | 33004 ft | 532 kts | 137° |
| 2026-05-08 06:50 | -20.22136 | 111.32039 | 32985 ft | 532 kts | 137° |
| 2026-05-08 06:51 | -20.26712 | 111.38186 | 32994 ft | 532 kts | 137° |
| 2026-05-08 06:51 | -20.31302 | 111.44360 | 33007 ft | 531 kts | 137° |
| 2026-05-08 06:52 | -20.35891 | 111.50538 | 33006 ft | 531 kts | 136° |
| 2026-05-08 06:52 | -20.40483 | 111.56726 | 33008 ft | 531 kts | 136° |
| 2026-05-08 06:53 | -20.45035 | 111.62867 | 33011 ft | 531 kts | 136° |
| 2026-05-08 06:53 | -20.49622 | 111.69062 | 33011 ft | 531 kts | 136° |
| 2026-05-08 06:54 | -20.54201 | 111.75252 | 33011 ft | 530 kts | 136° |
| 2026-05-08 06:54 | -20.58770 | 111.81436 | 33014 ft | 530 kts | 136° |
| 2026-05-08 06:55 | -20.63306 | 111.87583 | 33008 ft | 530 kts | 136° |
| 2026-05-08 06:55 | -20.67879 | 111.93784 | 33012 ft | 530 kts | 136° |
| 2026-05-08 06:56 | -20.72440 | 111.99975 | 33018 ft | 530 kts | 136° |
| 2026-05-08 06:56 | -20.76978 | 112.06138 | 33015 ft | 530 kts | 136° |
| 2026-05-08 06:57 | -20.81521 | 112.12338 | 33015 ft | 530 kts | 136° |
| 2026-05-08 06:57 | -20.86066 | 112.18544 | 33018 ft | 530 kts | 136° |
| 2026-05-08 06:58 | -20.90612 | 112.24753 | 33020 ft | 530 kts | 136° |
| 2026-05-08 06:58 | -20.95135 | 112.30938 | 33023 ft | 530 kts | 136° |
| 2026-05-08 06:59 | -20.99676 | 112.37154 | 33022 ft | 529 kts | 136° |
| 2026-05-08 06:59 | -21.04214 | 112.43374 | 33020 ft | 529 kts | 136° |
| 2026-05-08 07:00 | -21.08746 | 112.49593 | 33027 ft | 529 kts | 136° |
| 2026-05-08 07:00 | -21.13277 | 112.55817 | 33026 ft | 529 kts | 136° |
| 2026-05-08 07:01 | -21.17803 | 112.62042 | 33028 ft | 530 kts | 136° |
| 2026-05-08 07:01 | -21.22328 | 112.68272 | 33032 ft | 529 kts | 136° |
| 2026-05-08 07:02 | -21.26819 | 112.74461 | 33031 ft | 529 kts | 136° |
| 2026-05-08 07:02 | -21.31332 | 112.80688 | 33033 ft | 529 kts | 136° |
| 2026-05-08 07:03 | -21.35858 | 112.86939 | 33039 ft | 529 kts | 136° |
| 2026-05-08 07:03 | -21.40365 | 112.93172 | 33037 ft | 529 kts | 136° |
| 2026-05-08 07:04 | -21.44877 | 112.99418 | 33043 ft | 528 kts | 136° |
| 2026-05-08 07:04 | -21.49348 | 113.05614 | 33056 ft | 528 kts | 136° |
| 2026-05-08 07:05 | -21.53847 | 113.11857 | 33029 ft | 528 kts | 136° |
| 2026-05-08 07:05 | -21.58343 | 113.18102 | 33041 ft | 528 kts | 136° |
| 2026-05-08 07:06 | -21.62831 | 113.24344 | 33040 ft | 528 kts | 136° |
| 2026-05-08 07:06 | -21.67332 | 113.30610 | 33043 ft | 528 kts | 136° |
| 2026-05-08 07:07 | -21.71798 | 113.36836 | 33053 ft | 528 kts | 136° |
| 2026-05-08 07:07 | -21.76287 | 113.43099 | 33057 ft | 528 kts | 136° |